<?xml version="1.0" encoding="UTF-8" standalone="no" ?>
<gpx xmlns="http://www.topografix.com/GPX/1/1" xmlns:xsi="http://www.w3.org/2001/XMLSchema-instance" xsi:schemaLocation="http://www.topografix.com/GPX/1/1 http://www.topografix.com/GPX/1/1/gpx.xsd" version="1.1" creator="VisuGPX - https://www.visugpx.com">
  <metadata>
    <name>Tracé_11-JUIN-23 115121 AM</name>
  </metadata>
  <trk>
    <name><![CDATA[Tracé_11-JUIN-23 115121 AM]]></name>
    <trkseg>
      <trkpt lat="44.6603" lon="3.05041">
        <ele>1154.2</ele>
        <time>2023-06-11T07:05:01Z</time>
      </trkpt>
      <trkpt lat="44.6603" lon="3.05041">
        <ele>1153.24</ele>
        <time>2023-06-11T07:05:02Z</time>
      </trkpt>
      <trkpt lat="44.66035" lon="3.05048">
        <ele>1155.16</ele>
        <time>2023-06-11T07:05:25Z</time>
      </trkpt>
      <trkpt lat="44.6604" lon="3.05041">
        <ele>1153.72</ele>
        <time>2023-06-11T07:05:50Z</time>
      </trkpt>
      <trkpt lat="44.6604" lon="3.05041">
        <ele>1154.2</ele>
        <time>2023-06-11T07:05:51Z</time>
      </trkpt>
      <trkpt lat="44.66037" lon="3.05044">
        <ele>1159.01</ele>
        <time>2023-06-11T07:06:06Z</time>
      </trkpt>
      <trkpt lat="44.66034" lon="3.05044">
        <ele>1162.37</ele>
        <time>2023-06-11T07:06:09Z</time>
      </trkpt>
      <trkpt lat="44.66034" lon="3.05045">
        <ele>1162.85</ele>
        <time>2023-06-11T07:06:10Z</time>
      </trkpt>
      <trkpt lat="44.66033" lon="3.05045">
        <ele>1166.22</ele>
        <time>2023-06-11T07:06:13Z</time>
      </trkpt>
      <trkpt lat="44.66033" lon="3.05045">
        <ele>1166.22</ele>
        <time>2023-06-11T07:06:14Z</time>
      </trkpt>
      <trkpt lat="44.66033" lon="3.05044">
        <ele>1168.62</ele>
        <time>2023-06-11T07:06:17Z</time>
      </trkpt>
      <trkpt lat="44.66032" lon="3.05044">
        <ele>1171.02</ele>
        <time>2023-06-11T07:06:21Z</time>
      </trkpt>
      <trkpt lat="44.66032" lon="3.05045">
        <ele>1172.95</ele>
        <time>2023-06-11T07:06:24Z</time>
      </trkpt>
      <trkpt lat="44.66032" lon="3.05044">
        <ele>1174.87</ele>
        <time>2023-06-11T07:06:27Z</time>
      </trkpt>
      <trkpt lat="44.66033" lon="3.05043">
        <ele>1177.27</ele>
        <time>2023-06-11T07:06:31Z</time>
      </trkpt>
      <trkpt lat="44.66034" lon="3.05042">
        <ele>1179.67</ele>
        <time>2023-06-11T07:06:37Z</time>
      </trkpt>
      <trkpt lat="44.66036" lon="3.05046">
        <ele>1183.52</ele>
        <time>2023-06-11T07:06:48Z</time>
      </trkpt>
      <trkpt lat="44.66039" lon="3.05048">
        <ele>1186.4</ele>
        <time>2023-06-11T07:07:04Z</time>
      </trkpt>
      <trkpt lat="44.66039" lon="3.0505">
        <ele>1187.37</ele>
        <time>2023-06-11T07:07:27Z</time>
      </trkpt>
      <trkpt lat="44.66039" lon="3.0505">
        <ele>1187.37</ele>
        <time>2023-06-11T07:07:51Z</time>
      </trkpt>
      <trkpt lat="44.66037" lon="3.05039">
        <ele>1186.4</ele>
        <time>2023-06-11T07:08:21Z</time>
      </trkpt>
      <trkpt lat="44.66034" lon="3.05044">
        <ele>1186.88</ele>
        <time>2023-06-11T07:08:52Z</time>
      </trkpt>
      <trkpt lat="44.66034" lon="3.05042">
        <ele>1186.88</ele>
        <time>2023-06-11T07:09:15Z</time>
      </trkpt>
      <trkpt lat="44.66038" lon="3.05042">
        <ele>1186.88</ele>
        <time>2023-06-11T07:09:27Z</time>
      </trkpt>
      <trkpt lat="44.6604" lon="3.05038">
        <ele>1186.88</ele>
        <time>2023-06-11T07:09:44Z</time>
      </trkpt>
      <trkpt lat="44.66039" lon="3.0504">
        <ele>1186.88</ele>
        <time>2023-06-11T07:10:05Z</time>
      </trkpt>
      <trkpt lat="44.66042" lon="3.05042">
        <ele>1186.4</ele>
        <time>2023-06-11T07:10:20Z</time>
      </trkpt>
      <trkpt lat="44.6604" lon="3.05046">
        <ele>1186.4</ele>
        <time>2023-06-11T07:10:36Z</time>
      </trkpt>
      <trkpt lat="44.66041" lon="3.05057">
        <ele>1186.4</ele>
        <time>2023-06-11T07:10:51Z</time>
      </trkpt>
      <trkpt lat="44.66043" lon="3.0506">
        <ele>1186.4</ele>
        <time>2023-06-11T07:11:05Z</time>
      </trkpt>
      <trkpt lat="44.66036" lon="3.05071">
        <ele>1185.92</ele>
        <time>2023-06-11T07:11:19Z</time>
      </trkpt>
      <trkpt lat="44.66035" lon="3.05077">
        <ele>1185.92</ele>
        <time>2023-06-11T07:11:24Z</time>
      </trkpt>
      <trkpt lat="44.66033" lon="3.05083">
        <ele>1186.4</ele>
        <time>2023-06-11T07:11:28Z</time>
      </trkpt>
      <trkpt lat="44.66018" lon="3.05101">
        <ele>1187.37</ele>
        <time>2023-06-11T07:11:48Z</time>
      </trkpt>
      <trkpt lat="44.66001" lon="3.05116">
        <ele>1187.85</ele>
        <time>2023-06-11T07:12:06Z</time>
      </trkpt>
      <trkpt lat="44.65986" lon="3.0512">
        <ele>1186.88</ele>
        <time>2023-06-11T07:12:19Z</time>
      </trkpt>
      <trkpt lat="44.65982" lon="3.05121">
        <ele>1186.4</ele>
        <time>2023-06-11T07:12:23Z</time>
      </trkpt>
      <trkpt lat="44.65973" lon="3.05123">
        <ele>1186.88</ele>
        <time>2023-06-11T07:12:31Z</time>
      </trkpt>
      <trkpt lat="44.65954" lon="3.05129">
        <ele>1186.88</ele>
        <time>2023-06-11T07:12:47Z</time>
      </trkpt>
      <trkpt lat="44.65933" lon="3.05143">
        <ele>1186.88</ele>
        <time>2023-06-11T07:13:07Z</time>
      </trkpt>
      <trkpt lat="44.65923" lon="3.05159">
        <ele>1187.37</ele>
        <time>2023-06-11T07:13:21Z</time>
      </trkpt>
      <trkpt lat="44.65922" lon="3.05161">
        <ele>1187.85</ele>
        <time>2023-06-11T07:13:23Z</time>
      </trkpt>
      <trkpt lat="44.6592" lon="3.05151">
        <ele>1186.88</ele>
        <time>2023-06-11T07:13:28Z</time>
      </trkpt>
      <trkpt lat="44.65914" lon="3.05141">
        <ele>1187.37</ele>
        <time>2023-06-11T07:13:36Z</time>
      </trkpt>
      <trkpt lat="44.65892" lon="3.05135">
        <ele>1188.81</ele>
        <time>2023-06-11T07:13:53Z</time>
      </trkpt>
      <trkpt lat="44.65871" lon="3.05142">
        <ele>1190.25</ele>
        <time>2023-06-11T07:14:10Z</time>
      </trkpt>
      <trkpt lat="44.65851" lon="3.05149">
        <ele>1191.21</ele>
        <time>2023-06-11T07:14:28Z</time>
      </trkpt>
      <trkpt lat="44.65834" lon="3.05156">
        <ele>1192.17</ele>
        <time>2023-06-11T07:14:42Z</time>
      </trkpt>
      <trkpt lat="44.65804" lon="3.05165">
        <ele>1192.17</ele>
        <time>2023-06-11T07:15:08Z</time>
      </trkpt>
      <trkpt lat="44.65774" lon="3.05175">
        <ele>1194.58</ele>
        <time>2023-06-11T07:15:33Z</time>
      </trkpt>
      <trkpt lat="44.65754" lon="3.05183">
        <ele>1195.54</ele>
        <time>2023-06-11T07:15:55Z</time>
      </trkpt>
      <trkpt lat="44.65724" lon="3.05196">
        <ele>1197.94</ele>
        <time>2023-06-11T07:16:16Z</time>
      </trkpt>
      <trkpt lat="44.65701" lon="3.05205">
        <ele>1199.38</ele>
        <time>2023-06-11T07:16:35Z</time>
      </trkpt>
      <trkpt lat="44.65683" lon="3.05204">
        <ele>1199.86</ele>
        <time>2023-06-11T07:16:47Z</time>
      </trkpt>
      <trkpt lat="44.65662" lon="3.05203">
        <ele>1197.94</ele>
        <time>2023-06-11T07:17:06Z</time>
      </trkpt>
      <trkpt lat="44.65638" lon="3.05196">
        <ele>1196.98</ele>
        <time>2023-06-11T07:17:26Z</time>
      </trkpt>
      <trkpt lat="44.65613" lon="3.05188">
        <ele>1197.94</ele>
        <time>2023-06-11T07:17:47Z</time>
      </trkpt>
      <trkpt lat="44.65589" lon="3.05181">
        <ele>1197.94</ele>
        <time>2023-06-11T07:18:07Z</time>
      </trkpt>
      <trkpt lat="44.65562" lon="3.05178">
        <ele>1198.9</ele>
        <time>2023-06-11T07:18:28Z</time>
      </trkpt>
      <trkpt lat="44.65548" lon="3.05174">
        <ele>1199.38</ele>
        <time>2023-06-11T07:18:42Z</time>
      </trkpt>
      <trkpt lat="44.6553" lon="3.05165">
        <ele>1200.34</ele>
        <time>2023-06-11T07:18:58Z</time>
      </trkpt>
      <trkpt lat="44.65522" lon="3.0516">
        <ele>1200.34</ele>
        <time>2023-06-11T07:19:06Z</time>
      </trkpt>
      <trkpt lat="44.65516" lon="3.05158">
        <ele>1201.79</ele>
        <time>2023-06-11T07:19:11Z</time>
      </trkpt>
      <trkpt lat="44.65505" lon="3.0515">
        <ele>1202.75</ele>
        <time>2023-06-11T07:19:22Z</time>
      </trkpt>
      <trkpt lat="44.65503" lon="3.0515">
        <ele>1201.79</ele>
        <time>2023-06-11T07:19:24Z</time>
      </trkpt>
      <trkpt lat="44.65485" lon="3.05148">
        <ele>1203.71</ele>
        <time>2023-06-11T07:19:42Z</time>
      </trkpt>
      <trkpt lat="44.6548" lon="3.05149">
        <ele>1203.71</ele>
        <time>2023-06-11T07:19:46Z</time>
      </trkpt>
      <trkpt lat="44.65461" lon="3.05153">
        <ele>1205.15</ele>
        <time>2023-06-11T07:20:03Z</time>
      </trkpt>
      <trkpt lat="44.65441" lon="3.05157">
        <ele>1204.19</ele>
        <time>2023-06-11T07:20:19Z</time>
      </trkpt>
      <trkpt lat="44.65422" lon="3.05163">
        <ele>1204.19</ele>
        <time>2023-06-11T07:20:36Z</time>
      </trkpt>
      <trkpt lat="44.65403" lon="3.0517">
        <ele>1204.19</ele>
        <time>2023-06-11T07:20:52Z</time>
      </trkpt>
      <trkpt lat="44.65381" lon="3.05173">
        <ele>1205.15</ele>
        <time>2023-06-11T07:21:08Z</time>
      </trkpt>
      <trkpt lat="44.65362" lon="3.05172">
        <ele>1205.15</ele>
        <time>2023-06-11T07:21:22Z</time>
      </trkpt>
      <trkpt lat="44.65352" lon="3.05176">
        <ele>1205.15</ele>
        <time>2023-06-11T07:21:31Z</time>
      </trkpt>
      <trkpt lat="44.65342" lon="3.05205">
        <ele>1204.67</ele>
        <time>2023-06-11T07:21:49Z</time>
      </trkpt>
      <trkpt lat="44.65335" lon="3.05227">
        <ele>1204.67</ele>
        <time>2023-06-11T07:22:04Z</time>
      </trkpt>
      <trkpt lat="44.65324" lon="3.05255">
        <ele>1203.71</ele>
        <time>2023-06-11T07:22:22Z</time>
      </trkpt>
      <trkpt lat="44.6532" lon="3.05265">
        <ele>1204.19</ele>
        <time>2023-06-11T07:22:28Z</time>
      </trkpt>
      <trkpt lat="44.65318" lon="3.05267">
        <ele>1204.19</ele>
        <time>2023-06-11T07:22:30Z</time>
      </trkpt>
      <trkpt lat="44.65308" lon="3.05285">
        <ele>1204.67</ele>
        <time>2023-06-11T07:22:44Z</time>
      </trkpt>
      <trkpt lat="44.65295" lon="3.05312">
        <ele>1205.15</ele>
        <time>2023-06-11T07:23:03Z</time>
      </trkpt>
      <trkpt lat="44.65285" lon="3.0533">
        <ele>1206.11</ele>
        <time>2023-06-11T07:23:18Z</time>
      </trkpt>
      <trkpt lat="44.65283" lon="3.05333">
        <ele>1206.11</ele>
        <time>2023-06-11T07:23:21Z</time>
      </trkpt>
      <trkpt lat="44.6528" lon="3.05339">
        <ele>1206.11</ele>
        <time>2023-06-11T07:23:28Z</time>
      </trkpt>
      <trkpt lat="44.65279" lon="3.05341">
        <ele>1206.59</ele>
        <time>2023-06-11T07:23:29Z</time>
      </trkpt>
      <trkpt lat="44.65268" lon="3.05358">
        <ele>1206.59</ele>
        <time>2023-06-11T07:23:42Z</time>
      </trkpt>
      <trkpt lat="44.65267" lon="3.05361">
        <ele>1206.59</ele>
        <time>2023-06-11T07:23:44Z</time>
      </trkpt>
      <trkpt lat="44.65266" lon="3.05362">
        <ele>1206.59</ele>
        <time>2023-06-11T07:23:45Z</time>
      </trkpt>
      <trkpt lat="44.65264" lon="3.05362">
        <ele>1207.07</ele>
        <time>2023-06-11T07:23:46Z</time>
      </trkpt>
      <trkpt lat="44.65263" lon="3.05364">
        <ele>1206.59</ele>
        <time>2023-06-11T07:23:47Z</time>
      </trkpt>
      <trkpt lat="44.65262" lon="3.05365">
        <ele>1207.07</ele>
        <time>2023-06-11T07:23:48Z</time>
      </trkpt>
      <trkpt lat="44.65248" lon="3.05379">
        <ele>1208.03</ele>
        <time>2023-06-11T07:24:04Z</time>
      </trkpt>
      <trkpt lat="44.65229" lon="3.05388">
        <ele>1208.51</ele>
        <time>2023-06-11T07:24:19Z</time>
      </trkpt>
      <trkpt lat="44.65207" lon="3.05401">
        <ele>1209.48</ele>
        <time>2023-06-11T07:24:37Z</time>
      </trkpt>
      <trkpt lat="44.65186" lon="3.05407">
        <ele>1210.44</ele>
        <time>2023-06-11T07:24:55Z</time>
      </trkpt>
      <trkpt lat="44.65172" lon="3.05408">
        <ele>1210.92</ele>
        <time>2023-06-11T07:25:04Z</time>
      </trkpt>
      <trkpt lat="44.65172" lon="3.05411">
        <ele>1211.4</ele>
        <time>2023-06-11T07:25:06Z</time>
      </trkpt>
      <trkpt lat="44.65172" lon="3.05412">
        <ele>1210.92</ele>
        <time>2023-06-11T07:25:07Z</time>
      </trkpt>
      <trkpt lat="44.65172" lon="3.05414">
        <ele>1211.4</ele>
        <time>2023-06-11T07:25:08Z</time>
      </trkpt>
      <trkpt lat="44.65173" lon="3.05414">
        <ele>1210.92</ele>
        <time>2023-06-11T07:25:09Z</time>
      </trkpt>
      <trkpt lat="44.65174" lon="3.05416">
        <ele>1210.92</ele>
        <time>2023-06-11T07:25:10Z</time>
      </trkpt>
      <trkpt lat="44.65174" lon="3.05417">
        <ele>1210.92</ele>
        <time>2023-06-11T07:25:11Z</time>
      </trkpt>
      <trkpt lat="44.65176" lon="3.05418">
        <ele>1210.92</ele>
        <time>2023-06-11T07:25:12Z</time>
      </trkpt>
      <trkpt lat="44.65191" lon="3.05427">
        <ele>1212.36</ele>
        <time>2023-06-11T07:25:27Z</time>
      </trkpt>
      <trkpt lat="44.65195" lon="3.05429">
        <ele>1213.32</ele>
        <time>2023-06-11T07:25:37Z</time>
      </trkpt>
      <trkpt lat="44.65191" lon="3.05428">
        <ele>1212.36</ele>
        <time>2023-06-11T07:25:49Z</time>
      </trkpt>
      <trkpt lat="44.65189" lon="3.05428">
        <ele>1212.36</ele>
        <time>2023-06-11T07:25:50Z</time>
      </trkpt>
      <trkpt lat="44.65188" lon="3.05427">
        <ele>1212.84</ele>
        <time>2023-06-11T07:25:51Z</time>
      </trkpt>
      <trkpt lat="44.65177" lon="3.0542">
        <ele>1211.88</ele>
        <time>2023-06-11T07:26:02Z</time>
      </trkpt>
      <trkpt lat="44.65171" lon="3.05414">
        <ele>1211.88</ele>
        <time>2023-06-11T07:26:09Z</time>
      </trkpt>
      <trkpt lat="44.65169" lon="3.05412">
        <ele>1210.92</ele>
        <time>2023-06-11T07:26:11Z</time>
      </trkpt>
      <trkpt lat="44.65168" lon="3.05411">
        <ele>1210.44</ele>
        <time>2023-06-11T07:26:12Z</time>
      </trkpt>
      <trkpt lat="44.65162" lon="3.05406">
        <ele>1210.44</ele>
        <time>2023-06-11T07:26:19Z</time>
      </trkpt>
      <trkpt lat="44.65161" lon="3.05406">
        <ele>1210.44</ele>
        <time>2023-06-11T07:26:20Z</time>
      </trkpt>
      <trkpt lat="44.65153" lon="3.0541">
        <ele>1210.44</ele>
        <time>2023-06-11T07:26:32Z</time>
      </trkpt>
      <trkpt lat="44.65152" lon="3.0541">
        <ele>1209.48</ele>
        <time>2023-06-11T07:26:33Z</time>
      </trkpt>
      <trkpt lat="44.65151" lon="3.05411">
        <ele>1210.44</ele>
        <time>2023-06-11T07:26:34Z</time>
      </trkpt>
      <trkpt lat="44.6515" lon="3.05413">
        <ele>1209.96</ele>
        <time>2023-06-11T07:26:36Z</time>
      </trkpt>
      <trkpt lat="44.65149" lon="3.05415">
        <ele>1210.44</ele>
        <time>2023-06-11T07:26:37Z</time>
      </trkpt>
      <trkpt lat="44.65149" lon="3.05416">
        <ele>1210.44</ele>
        <time>2023-06-11T07:26:38Z</time>
      </trkpt>
      <trkpt lat="44.65149" lon="3.05418">
        <ele>1210.92</ele>
        <time>2023-06-11T07:26:39Z</time>
      </trkpt>
      <trkpt lat="44.65158" lon="3.05441">
        <ele>1211.4</ele>
        <time>2023-06-11T07:26:58Z</time>
      </trkpt>
      <trkpt lat="44.65164" lon="3.05451">
        <ele>1211.88</ele>
        <time>2023-06-11T07:27:08Z</time>
      </trkpt>
      <trkpt lat="44.65165" lon="3.05453">
        <ele>1211.88</ele>
        <time>2023-06-11T07:27:09Z</time>
      </trkpt>
      <trkpt lat="44.65166" lon="3.05455">
        <ele>1211.4</ele>
        <time>2023-06-11T07:27:10Z</time>
      </trkpt>
      <trkpt lat="44.65167" lon="3.05456">
        <ele>1212.36</ele>
        <time>2023-06-11T07:27:11Z</time>
      </trkpt>
      <trkpt lat="44.65167" lon="3.05458">
        <ele>1211.4</ele>
        <time>2023-06-11T07:27:12Z</time>
      </trkpt>
      <trkpt lat="44.65169" lon="3.05462">
        <ele>1211.88</ele>
        <time>2023-06-11T07:27:17Z</time>
      </trkpt>
      <trkpt lat="44.65169" lon="3.05463">
        <ele>1212.36</ele>
        <time>2023-06-11T07:27:18Z</time>
      </trkpt>
      <trkpt lat="44.65171" lon="3.05464">
        <ele>1212.36</ele>
        <time>2023-06-11T07:27:19Z</time>
      </trkpt>
      <trkpt lat="44.65181" lon="3.0548">
        <ele>1211.88</ele>
        <time>2023-06-11T07:27:31Z</time>
      </trkpt>
      <trkpt lat="44.65183" lon="3.05484">
        <ele>1211.88</ele>
        <time>2023-06-11T07:27:35Z</time>
      </trkpt>
      <trkpt lat="44.65191" lon="3.05501">
        <ele>1210.92</ele>
        <time>2023-06-11T07:27:48Z</time>
      </trkpt>
      <trkpt lat="44.65191" lon="3.05508">
        <ele>1211.4</ele>
        <time>2023-06-11T07:27:53Z</time>
      </trkpt>
      <trkpt lat="44.65191" lon="3.0551">
        <ele>1211.4</ele>
        <time>2023-06-11T07:27:54Z</time>
      </trkpt>
      <trkpt lat="44.65191" lon="3.05512">
        <ele>1211.88</ele>
        <time>2023-06-11T07:27:55Z</time>
      </trkpt>
      <trkpt lat="44.6519" lon="3.05521">
        <ele>1210.92</ele>
        <time>2023-06-11T07:28:01Z</time>
      </trkpt>
      <trkpt lat="44.65186" lon="3.0554">
        <ele>1211.4</ele>
        <time>2023-06-11T07:28:14Z</time>
      </trkpt>
      <trkpt lat="44.65177" lon="3.05558">
        <ele>1211.88</ele>
        <time>2023-06-11T07:28:28Z</time>
      </trkpt>
      <trkpt lat="44.65165" lon="3.05578">
        <ele>1211.4</ele>
        <time>2023-06-11T07:28:43Z</time>
      </trkpt>
      <trkpt lat="44.6516" lon="3.0559">
        <ele>1211.88</ele>
        <time>2023-06-11T07:28:53Z</time>
      </trkpt>
      <trkpt lat="44.65159" lon="3.05592">
        <ele>1211.4</ele>
        <time>2023-06-11T07:28:54Z</time>
      </trkpt>
      <trkpt lat="44.65159" lon="3.05594">
        <ele>1212.84</ele>
        <time>2023-06-11T07:28:55Z</time>
      </trkpt>
      <trkpt lat="44.65159" lon="3.05619">
        <ele>1212.84</ele>
        <time>2023-06-11T07:29:12Z</time>
      </trkpt>
      <trkpt lat="44.6516" lon="3.05644">
        <ele>1213.32</ele>
        <time>2023-06-11T07:29:27Z</time>
      </trkpt>
      <trkpt lat="44.65162" lon="3.05656">
        <ele>1213.32</ele>
        <time>2023-06-11T07:29:34Z</time>
      </trkpt>
      <trkpt lat="44.65181" lon="3.05681">
        <ele>1213.32</ele>
        <time>2023-06-11T07:29:57Z</time>
      </trkpt>
      <trkpt lat="44.65196" lon="3.05701">
        <ele>1212.36</ele>
        <time>2023-06-11T07:30:17Z</time>
      </trkpt>
      <trkpt lat="44.6521" lon="3.0572">
        <ele>1213.32</ele>
        <time>2023-06-11T07:30:36Z</time>
      </trkpt>
      <trkpt lat="44.65223" lon="3.05741">
        <ele>1213.32</ele>
        <time>2023-06-11T07:30:55Z</time>
      </trkpt>
      <trkpt lat="44.65228" lon="3.05761">
        <ele>1213.8</ele>
        <time>2023-06-11T07:31:09Z</time>
      </trkpt>
      <trkpt lat="44.65228" lon="3.05763">
        <ele>1212.84</ele>
        <time>2023-06-11T07:31:10Z</time>
      </trkpt>
      <trkpt lat="44.65222" lon="3.05776">
        <ele>1213.32</ele>
        <time>2023-06-11T07:31:21Z</time>
      </trkpt>
      <trkpt lat="44.65213" lon="3.05792">
        <ele>1213.32</ele>
        <time>2023-06-11T07:31:33Z</time>
      </trkpt>
      <trkpt lat="44.65196" lon="3.05799">
        <ele>1214.76</ele>
        <time>2023-06-11T07:31:48Z</time>
      </trkpt>
      <trkpt lat="44.65184" lon="3.05802">
        <ele>1214.76</ele>
        <time>2023-06-11T07:31:59Z</time>
      </trkpt>
      <trkpt lat="44.65165" lon="3.05809">
        <ele>1214.76</ele>
        <time>2023-06-11T07:32:15Z</time>
      </trkpt>
      <trkpt lat="44.65156" lon="3.05813">
        <ele>1214.76</ele>
        <time>2023-06-11T07:32:24Z</time>
      </trkpt>
      <trkpt lat="44.65154" lon="3.05813">
        <ele>1214.76</ele>
        <time>2023-06-11T07:32:25Z</time>
      </trkpt>
      <trkpt lat="44.65135" lon="3.05819">
        <ele>1213.8</ele>
        <time>2023-06-11T07:32:41Z</time>
      </trkpt>
      <trkpt lat="44.65128" lon="3.05826">
        <ele>1214.28</ele>
        <time>2023-06-11T07:32:50Z</time>
      </trkpt>
      <trkpt lat="44.65122" lon="3.05852">
        <ele>1213.8</ele>
        <time>2023-06-11T07:33:06Z</time>
      </trkpt>
      <trkpt lat="44.65124" lon="3.05872">
        <ele>1213.8</ele>
        <time>2023-06-11T07:33:18Z</time>
      </trkpt>
      <trkpt lat="44.65123" lon="3.05874">
        <ele>1213.8</ele>
        <time>2023-06-11T07:33:19Z</time>
      </trkpt>
      <trkpt lat="44.65123" lon="3.05876">
        <ele>1215.24</ele>
        <time>2023-06-11T07:33:20Z</time>
      </trkpt>
      <trkpt lat="44.65122" lon="3.05877">
        <ele>1214.76</ele>
        <time>2023-06-11T07:33:21Z</time>
      </trkpt>
      <trkpt lat="44.65122" lon="3.05879">
        <ele>1213.8</ele>
        <time>2023-06-11T07:33:22Z</time>
      </trkpt>
      <trkpt lat="44.65121" lon="3.05881">
        <ele>1214.28</ele>
        <time>2023-06-11T07:33:23Z</time>
      </trkpt>
      <trkpt lat="44.6512" lon="3.05882">
        <ele>1214.28</ele>
        <time>2023-06-11T07:33:24Z</time>
      </trkpt>
      <trkpt lat="44.65113" lon="3.05884">
        <ele>1215.24</ele>
        <time>2023-06-11T07:33:31Z</time>
      </trkpt>
      <trkpt lat="44.65099" lon="3.05883">
        <ele>1216.69</ele>
        <time>2023-06-11T07:33:42Z</time>
      </trkpt>
      <trkpt lat="44.65098" lon="3.05883">
        <ele>1215.72</ele>
        <time>2023-06-11T07:33:43Z</time>
      </trkpt>
      <trkpt lat="44.65097" lon="3.05883">
        <ele>1216.21</ele>
        <time>2023-06-11T07:33:44Z</time>
      </trkpt>
      <trkpt lat="44.65085" lon="3.05884">
        <ele>1218.13</ele>
        <time>2023-06-11T07:33:55Z</time>
      </trkpt>
      <trkpt lat="44.65078" lon="3.05885">
        <ele>1218.13</ele>
        <time>2023-06-11T07:34:02Z</time>
      </trkpt>
      <trkpt lat="44.6507" lon="3.0589">
        <ele>1220.05</ele>
        <time>2023-06-11T07:34:12Z</time>
      </trkpt>
      <trkpt lat="44.65055" lon="3.05892">
        <ele>1220.53</ele>
        <time>2023-06-11T07:34:27Z</time>
      </trkpt>
      <trkpt lat="44.6505" lon="3.05895">
        <ele>1220.05</ele>
        <time>2023-06-11T07:34:32Z</time>
      </trkpt>
      <trkpt lat="44.65042" lon="3.05897">
        <ele>1221.01</ele>
        <time>2023-06-11T07:34:40Z</time>
      </trkpt>
      <trkpt lat="44.65036" lon="3.05899">
        <ele>1221.49</ele>
        <time>2023-06-11T07:34:46Z</time>
      </trkpt>
      <trkpt lat="44.65023" lon="3.05903">
        <ele>1223.42</ele>
        <time>2023-06-11T07:35:00Z</time>
      </trkpt>
      <trkpt lat="44.65008" lon="3.05907">
        <ele>1223.9</ele>
        <time>2023-06-11T07:35:15Z</time>
      </trkpt>
      <trkpt lat="44.65" lon="3.05911">
        <ele>1224.86</ele>
        <time>2023-06-11T07:35:23Z</time>
      </trkpt>
      <trkpt lat="44.64986" lon="3.05919">
        <ele>1225.82</ele>
        <time>2023-06-11T07:35:37Z</time>
      </trkpt>
      <trkpt lat="44.64983" lon="3.05922">
        <ele>1225.34</ele>
        <time>2023-06-11T07:35:41Z</time>
      </trkpt>
      <trkpt lat="44.64974" lon="3.05936">
        <ele>1225.82</ele>
        <time>2023-06-11T07:35:53Z</time>
      </trkpt>
      <trkpt lat="44.64967" lon="3.05951">
        <ele>1226.3</ele>
        <time>2023-06-11T07:36:05Z</time>
      </trkpt>
      <trkpt lat="44.6496" lon="3.05969">
        <ele>1226.78</ele>
        <time>2023-06-11T07:36:19Z</time>
      </trkpt>
      <trkpt lat="44.64949" lon="3.05997">
        <ele>1225.34</ele>
        <time>2023-06-11T07:36:40Z</time>
      </trkpt>
      <trkpt lat="44.64945" lon="3.06">
        <ele>1223.42</ele>
        <time>2023-06-11T07:36:43Z</time>
      </trkpt>
      <trkpt lat="44.64944" lon="3.06002">
        <ele>1225.82</ele>
        <time>2023-06-11T07:36:45Z</time>
      </trkpt>
      <trkpt lat="44.64943" lon="3.06004">
        <ele>1223.9</ele>
        <time>2023-06-11T07:36:46Z</time>
      </trkpt>
      <trkpt lat="44.64943" lon="3.06005">
        <ele>1223.42</ele>
        <time>2023-06-11T07:36:47Z</time>
      </trkpt>
      <trkpt lat="44.64942" lon="3.06005">
        <ele>1224.86</ele>
        <time>2023-06-11T07:36:50Z</time>
      </trkpt>
      <trkpt lat="44.64943" lon="3.06006">
        <ele>1224.86</ele>
        <time>2023-06-11T07:37:10Z</time>
      </trkpt>
      <trkpt lat="44.64943" lon="3.06008">
        <ele>1224.38</ele>
        <time>2023-06-11T07:37:33Z</time>
      </trkpt>
      <trkpt lat="44.64942" lon="3.06007">
        <ele>1223.42</ele>
        <time>2023-06-11T07:37:48Z</time>
      </trkpt>
      <trkpt lat="44.64942" lon="3.06008">
        <ele>1224.86</ele>
        <time>2023-06-11T07:38:15Z</time>
      </trkpt>
      <trkpt lat="44.64944" lon="3.06008">
        <ele>1224.38</ele>
        <time>2023-06-11T07:38:31Z</time>
      </trkpt>
      <trkpt lat="44.64942" lon="3.0601">
        <ele>1225.34</ele>
        <time>2023-06-11T07:38:47Z</time>
      </trkpt>
      <trkpt lat="44.6494" lon="3.06015">
        <ele>1225.34</ele>
        <time>2023-06-11T07:39:05Z</time>
      </trkpt>
      <trkpt lat="44.64939" lon="3.06021">
        <ele>1224.86</ele>
        <time>2023-06-11T07:39:17Z</time>
      </trkpt>
      <trkpt lat="44.64939" lon="3.06022">
        <ele>1225.34</ele>
        <time>2023-06-11T07:39:18Z</time>
      </trkpt>
      <trkpt lat="44.64937" lon="3.06041">
        <ele>1225.34</ele>
        <time>2023-06-11T07:39:34Z</time>
      </trkpt>
      <trkpt lat="44.64933" lon="3.06061">
        <ele>1225.82</ele>
        <time>2023-06-11T07:39:51Z</time>
      </trkpt>
      <trkpt lat="44.64928" lon="3.06066">
        <ele>1226.78</ele>
        <time>2023-06-11T07:39:58Z</time>
      </trkpt>
      <trkpt lat="44.6492" lon="3.06078">
        <ele>1228.22</ele>
        <time>2023-06-11T07:40:13Z</time>
      </trkpt>
      <trkpt lat="44.64911" lon="3.0609">
        <ele>1230.62</ele>
        <time>2023-06-11T07:40:28Z</time>
      </trkpt>
      <trkpt lat="44.64899" lon="3.06107">
        <ele>1231.59</ele>
        <time>2023-06-11T07:40:47Z</time>
      </trkpt>
      <trkpt lat="44.64899" lon="3.06109">
        <ele>1231.59</ele>
        <time>2023-06-11T07:40:49Z</time>
      </trkpt>
      <trkpt lat="44.64898" lon="3.06123">
        <ele>1228.22</ele>
        <time>2023-06-11T07:41:01Z</time>
      </trkpt>
      <trkpt lat="44.64896" lon="3.06142">
        <ele>1226.3</ele>
        <time>2023-06-11T07:41:17Z</time>
      </trkpt>
      <trkpt lat="44.64889" lon="3.06166">
        <ele>1223.9</ele>
        <time>2023-06-11T07:41:35Z</time>
      </trkpt>
      <trkpt lat="44.64883" lon="3.06177">
        <ele>1222.93</ele>
        <time>2023-06-11T07:41:49Z</time>
      </trkpt>
      <trkpt lat="44.64882" lon="3.06175">
        <ele>1223.42</ele>
        <time>2023-06-11T07:42:05Z</time>
      </trkpt>
      <trkpt lat="44.64883" lon="3.06176">
        <ele>1222.93</ele>
        <time>2023-06-11T07:42:22Z</time>
      </trkpt>
      <trkpt lat="44.64884" lon="3.0618">
        <ele>1223.42</ele>
        <time>2023-06-11T07:42:50Z</time>
      </trkpt>
      <trkpt lat="44.64884" lon="3.06181">
        <ele>1223.42</ele>
        <time>2023-06-11T07:42:51Z</time>
      </trkpt>
      <trkpt lat="44.64882" lon="3.06205">
        <ele>1222.93</ele>
        <time>2023-06-11T07:43:07Z</time>
      </trkpt>
      <trkpt lat="44.64881" lon="3.06214">
        <ele>1223.9</ele>
        <time>2023-06-11T07:43:20Z</time>
      </trkpt>
      <trkpt lat="44.64882" lon="3.06214">
        <ele>1223.9</ele>
        <time>2023-06-11T07:43:40Z</time>
      </trkpt>
      <trkpt lat="44.64882" lon="3.06215">
        <ele>1223.9</ele>
        <time>2023-06-11T07:44:04Z</time>
      </trkpt>
      <trkpt lat="44.64881" lon="3.06214">
        <ele>1223.9</ele>
        <time>2023-06-11T07:44:39Z</time>
      </trkpt>
      <trkpt lat="44.64881" lon="3.0622">
        <ele>1223.9</ele>
        <time>2023-06-11T07:44:55Z</time>
      </trkpt>
      <trkpt lat="44.6488" lon="3.06246">
        <ele>1223.42</ele>
        <time>2023-06-11T07:45:12Z</time>
      </trkpt>
      <trkpt lat="44.64873" lon="3.06274">
        <ele>1223.42</ele>
        <time>2023-06-11T07:45:30Z</time>
      </trkpt>
      <trkpt lat="44.64866" lon="3.06306">
        <ele>1224.86</ele>
        <time>2023-06-11T07:45:50Z</time>
      </trkpt>
      <trkpt lat="44.64858" lon="3.06326">
        <ele>1225.82</ele>
        <time>2023-06-11T07:46:05Z</time>
      </trkpt>
      <trkpt lat="44.64857" lon="3.06328">
        <ele>1226.78</ele>
        <time>2023-06-11T07:46:07Z</time>
      </trkpt>
      <trkpt lat="44.64856" lon="3.0633">
        <ele>1226.3</ele>
        <time>2023-06-11T07:46:08Z</time>
      </trkpt>
      <trkpt lat="44.64856" lon="3.06332">
        <ele>1226.78</ele>
        <time>2023-06-11T07:46:09Z</time>
      </trkpt>
      <trkpt lat="44.64856" lon="3.06333">
        <ele>1226.78</ele>
        <time>2023-06-11T07:46:10Z</time>
      </trkpt>
      <trkpt lat="44.64854" lon="3.06339">
        <ele>1227.26</ele>
        <time>2023-06-11T07:46:24Z</time>
      </trkpt>
      <trkpt lat="44.64848" lon="3.06362">
        <ele>1228.22</ele>
        <time>2023-06-11T07:46:40Z</time>
      </trkpt>
      <trkpt lat="44.6484" lon="3.06386">
        <ele>1229.66</ele>
        <time>2023-06-11T07:46:58Z</time>
      </trkpt>
      <trkpt lat="44.64838" lon="3.06392">
        <ele>1229.66</ele>
        <time>2023-06-11T07:47:02Z</time>
      </trkpt>
      <trkpt lat="44.64837" lon="3.06393">
        <ele>1230.14</ele>
        <time>2023-06-11T07:47:03Z</time>
      </trkpt>
      <trkpt lat="44.64837" lon="3.06395">
        <ele>1230.62</ele>
        <time>2023-06-11T07:47:04Z</time>
      </trkpt>
      <trkpt lat="44.64836" lon="3.06396">
        <ele>1229.66</ele>
        <time>2023-06-11T07:47:05Z</time>
      </trkpt>
      <trkpt lat="44.64829" lon="3.06419">
        <ele>1230.14</ele>
        <time>2023-06-11T07:47:20Z</time>
      </trkpt>
      <trkpt lat="44.64828" lon="3.06424">
        <ele>1230.62</ele>
        <time>2023-06-11T07:47:24Z</time>
      </trkpt>
      <trkpt lat="44.64827" lon="3.06426">
        <ele>1230.14</ele>
        <time>2023-06-11T07:47:25Z</time>
      </trkpt>
      <trkpt lat="44.64827" lon="3.06428">
        <ele>1230.14</ele>
        <time>2023-06-11T07:47:26Z</time>
      </trkpt>
      <trkpt lat="44.64826" lon="3.06431">
        <ele>1230.62</ele>
        <time>2023-06-11T07:47:27Z</time>
      </trkpt>
      <trkpt lat="44.64826" lon="3.06433">
        <ele>1230.14</ele>
        <time>2023-06-11T07:47:28Z</time>
      </trkpt>
      <trkpt lat="44.64826" lon="3.06435">
        <ele>1231.11</ele>
        <time>2023-06-11T07:47:29Z</time>
      </trkpt>
      <trkpt lat="44.64825" lon="3.06436">
        <ele>1229.18</ele>
        <time>2023-06-11T07:47:32Z</time>
      </trkpt>
      <trkpt lat="44.64825" lon="3.06448">
        <ele>1229.66</ele>
        <time>2023-06-11T07:47:43Z</time>
      </trkpt>
      <trkpt lat="44.64822" lon="3.06466">
        <ele>1227.74</ele>
        <time>2023-06-11T07:47:56Z</time>
      </trkpt>
      <trkpt lat="44.64822" lon="3.0648">
        <ele>1225.82</ele>
        <time>2023-06-11T07:48:05Z</time>
      </trkpt>
      <trkpt lat="44.64816" lon="3.06495">
        <ele>1226.78</ele>
        <time>2023-06-11T07:48:17Z</time>
      </trkpt>
      <trkpt lat="44.6481" lon="3.0651">
        <ele>1224.86</ele>
        <time>2023-06-11T07:48:28Z</time>
      </trkpt>
      <trkpt lat="44.64809" lon="3.06512">
        <ele>1225.82</ele>
        <time>2023-06-11T07:48:29Z</time>
      </trkpt>
      <trkpt lat="44.64808" lon="3.06514">
        <ele>1225.34</ele>
        <time>2023-06-11T07:48:30Z</time>
      </trkpt>
      <trkpt lat="44.64805" lon="3.06525">
        <ele>1225.82</ele>
        <time>2023-06-11T07:48:39Z</time>
      </trkpt>
      <trkpt lat="44.64804" lon="3.06527">
        <ele>1225.34</ele>
        <time>2023-06-11T07:48:40Z</time>
      </trkpt>
      <trkpt lat="44.64802" lon="3.06528">
        <ele>1225.82</ele>
        <time>2023-06-11T07:48:41Z</time>
      </trkpt>
      <trkpt lat="44.64795" lon="3.06538">
        <ele>1223.9</ele>
        <time>2023-06-11T07:48:55Z</time>
      </trkpt>
      <trkpt lat="44.64792" lon="3.06544">
        <ele>1223.9</ele>
        <time>2023-06-11T07:48:59Z</time>
      </trkpt>
      <trkpt lat="44.6479" lon="3.06549">
        <ele>1223.42</ele>
        <time>2023-06-11T07:49:06Z</time>
      </trkpt>
      <trkpt lat="44.64789" lon="3.06552">
        <ele>1223.9</ele>
        <time>2023-06-11T07:49:07Z</time>
      </trkpt>
      <trkpt lat="44.64787" lon="3.06558">
        <ele>1223.9</ele>
        <time>2023-06-11T07:49:14Z</time>
      </trkpt>
      <trkpt lat="44.64786" lon="3.06559">
        <ele>1223.42</ele>
        <time>2023-06-11T07:49:15Z</time>
      </trkpt>
      <trkpt lat="44.64785" lon="3.06561">
        <ele>1223.42</ele>
        <time>2023-06-11T07:49:16Z</time>
      </trkpt>
      <trkpt lat="44.64785" lon="3.06562">
        <ele>1223.9</ele>
        <time>2023-06-11T07:49:17Z</time>
      </trkpt>
      <trkpt lat="44.64782" lon="3.06569">
        <ele>1222.93</ele>
        <time>2023-06-11T07:49:23Z</time>
      </trkpt>
      <trkpt lat="44.64781" lon="3.06571">
        <ele>1222.93</ele>
        <time>2023-06-11T07:49:24Z</time>
      </trkpt>
      <trkpt lat="44.64766" lon="3.06593">
        <ele>1220.53</ele>
        <time>2023-06-11T07:49:41Z</time>
      </trkpt>
      <trkpt lat="44.64749" lon="3.06617">
        <ele>1219.09</ele>
        <time>2023-06-11T07:50:00Z</time>
      </trkpt>
      <trkpt lat="44.64737" lon="3.06641">
        <ele>1219.57</ele>
        <time>2023-06-11T07:50:21Z</time>
      </trkpt>
      <trkpt lat="44.64727" lon="3.06669">
        <ele>1220.05</ele>
        <time>2023-06-11T07:50:40Z</time>
      </trkpt>
      <trkpt lat="44.64719" lon="3.06688">
        <ele>1220.05</ele>
        <time>2023-06-11T07:50:54Z</time>
      </trkpt>
      <trkpt lat="44.64713" lon="3.06702">
        <ele>1220.05</ele>
        <time>2023-06-11T07:51:05Z</time>
      </trkpt>
      <trkpt lat="44.64711" lon="3.06704">
        <ele>1219.57</ele>
        <time>2023-06-11T07:51:06Z</time>
      </trkpt>
      <trkpt lat="44.6471" lon="3.06706">
        <ele>1220.05</ele>
        <time>2023-06-11T07:51:07Z</time>
      </trkpt>
      <trkpt lat="44.64709" lon="3.06709">
        <ele>1219.57</ele>
        <time>2023-06-11T07:51:08Z</time>
      </trkpt>
      <trkpt lat="44.64708" lon="3.0671">
        <ele>1220.53</ele>
        <time>2023-06-11T07:51:09Z</time>
      </trkpt>
      <trkpt lat="44.64707" lon="3.06712">
        <ele>1220.05</ele>
        <time>2023-06-11T07:51:10Z</time>
      </trkpt>
      <trkpt lat="44.64699" lon="3.06731">
        <ele>1220.53</ele>
        <time>2023-06-11T07:51:26Z</time>
      </trkpt>
      <trkpt lat="44.6469" lon="3.06756">
        <ele>1221.01</ele>
        <time>2023-06-11T07:51:43Z</time>
      </trkpt>
      <trkpt lat="44.64679" lon="3.06776">
        <ele>1221.49</ele>
        <time>2023-06-11T07:51:58Z</time>
      </trkpt>
      <trkpt lat="44.64669" lon="3.06799">
        <ele>1221.49</ele>
        <time>2023-06-11T07:52:15Z</time>
      </trkpt>
      <trkpt lat="44.64661" lon="3.06822">
        <ele>1221.01</ele>
        <time>2023-06-11T07:52:32Z</time>
      </trkpt>
      <trkpt lat="44.6465" lon="3.0685">
        <ele>1220.53</ele>
        <time>2023-06-11T07:52:49Z</time>
      </trkpt>
      <trkpt lat="44.64643" lon="3.06886">
        <ele>1219.09</ele>
        <time>2023-06-11T07:53:08Z</time>
      </trkpt>
      <trkpt lat="44.64631" lon="3.06914">
        <ele>1218.61</ele>
        <time>2023-06-11T07:53:26Z</time>
      </trkpt>
      <trkpt lat="44.6462" lon="3.06939">
        <ele>1216.69</ele>
        <time>2023-06-11T07:53:41Z</time>
      </trkpt>
      <trkpt lat="44.64627" lon="3.06962">
        <ele>1216.69</ele>
        <time>2023-06-11T07:53:56Z</time>
      </trkpt>
      <trkpt lat="44.64642" lon="3.06985">
        <ele>1216.69</ele>
        <time>2023-06-11T07:54:15Z</time>
      </trkpt>
      <trkpt lat="44.64645" lon="3.07014">
        <ele>1216.69</ele>
        <time>2023-06-11T07:54:29Z</time>
      </trkpt>
      <trkpt lat="44.64645" lon="3.07027">
        <ele>1217.17</ele>
        <time>2023-06-11T07:54:40Z</time>
      </trkpt>
      <trkpt lat="44.64645" lon="3.07037">
        <ele>1214.76</ele>
        <time>2023-06-11T07:54:52Z</time>
      </trkpt>
      <trkpt lat="44.64643" lon="3.07041">
        <ele>1214.28</ele>
        <time>2023-06-11T07:55:07Z</time>
      </trkpt>
      <trkpt lat="44.64641" lon="3.07046">
        <ele>1214.76</ele>
        <time>2023-06-11T07:55:22Z</time>
      </trkpt>
      <trkpt lat="44.64637" lon="3.07047">
        <ele>1214.28</ele>
        <time>2023-06-11T07:55:32Z</time>
      </trkpt>
      <trkpt lat="44.64635" lon="3.07054">
        <ele>1214.76</ele>
        <time>2023-06-11T07:55:45Z</time>
      </trkpt>
      <trkpt lat="44.64633" lon="3.07059">
        <ele>1214.28</ele>
        <time>2023-06-11T07:55:59Z</time>
      </trkpt>
      <trkpt lat="44.64627" lon="3.07061">
        <ele>1213.8</ele>
        <time>2023-06-11T07:56:11Z</time>
      </trkpt>
      <trkpt lat="44.6463" lon="3.07062">
        <ele>1214.76</ele>
        <time>2023-06-11T07:56:24Z</time>
      </trkpt>
      <trkpt lat="44.64639" lon="3.0707">
        <ele>1212.84</ele>
        <time>2023-06-11T07:56:38Z</time>
      </trkpt>
      <trkpt lat="44.64644" lon="3.07077">
        <ele>1211.4</ele>
        <time>2023-06-11T07:56:52Z</time>
      </trkpt>
      <trkpt lat="44.64645" lon="3.07083">
        <ele>1211.4</ele>
        <time>2023-06-11T07:57:04Z</time>
      </trkpt>
      <trkpt lat="44.64651" lon="3.0709">
        <ele>1209</ele>
        <time>2023-06-11T07:57:23Z</time>
      </trkpt>
      <trkpt lat="44.64656" lon="3.07095">
        <ele>1207.07</ele>
        <time>2023-06-11T07:57:43Z</time>
      </trkpt>
      <trkpt lat="44.6466" lon="3.07103">
        <ele>1204.67</ele>
        <time>2023-06-11T07:58:02Z</time>
      </trkpt>
      <trkpt lat="44.64657" lon="3.0711">
        <ele>1202.27</ele>
        <time>2023-06-11T07:58:22Z</time>
      </trkpt>
      <trkpt lat="44.64655" lon="3.07111">
        <ele>1200.82</ele>
        <time>2023-06-11T07:58:41Z</time>
      </trkpt>
      <trkpt lat="44.64645" lon="3.07119">
        <ele>1200.82</ele>
        <time>2023-06-11T07:59:00Z</time>
      </trkpt>
      <trkpt lat="44.64638" lon="3.07126">
        <ele>1198.9</ele>
        <time>2023-06-11T07:59:14Z</time>
      </trkpt>
      <trkpt lat="44.64625" lon="3.07129">
        <ele>1199.86</ele>
        <time>2023-06-11T07:59:29Z</time>
      </trkpt>
      <trkpt lat="44.64619" lon="3.07128">
        <ele>1200.82</ele>
        <time>2023-06-11T07:59:38Z</time>
      </trkpt>
      <trkpt lat="44.64608" lon="3.07127">
        <ele>1201.3</ele>
        <time>2023-06-11T07:59:51Z</time>
      </trkpt>
      <trkpt lat="44.64615" lon="3.07128">
        <ele>1201.3</ele>
        <time>2023-06-11T08:00:07Z</time>
      </trkpt>
      <trkpt lat="44.64614" lon="3.07129">
        <ele>1200.82</ele>
        <time>2023-06-11T08:00:22Z</time>
      </trkpt>
      <trkpt lat="44.64615" lon="3.0713">
        <ele>1200.82</ele>
        <time>2023-06-11T08:00:38Z</time>
      </trkpt>
      <trkpt lat="44.6461" lon="3.07132">
        <ele>1200.82</ele>
        <time>2023-06-11T08:00:44Z</time>
      </trkpt>
      <trkpt lat="44.64602" lon="3.07122">
        <ele>1199.38</ele>
        <time>2023-06-11T08:00:58Z</time>
      </trkpt>
      <trkpt lat="44.646" lon="3.07115">
        <ele>1197.94</ele>
        <time>2023-06-11T08:01:10Z</time>
      </trkpt>
      <trkpt lat="44.646" lon="3.07119">
        <ele>1198.42</ele>
        <time>2023-06-11T08:01:24Z</time>
      </trkpt>
      <trkpt lat="44.64594" lon="3.07111">
        <ele>1195.54</ele>
        <time>2023-06-11T08:01:39Z</time>
      </trkpt>
      <trkpt lat="44.64591" lon="3.07104">
        <ele>1193.61</ele>
        <time>2023-06-11T08:01:51Z</time>
      </trkpt>
      <trkpt lat="44.64591" lon="3.07093">
        <ele>1191.21</ele>
        <time>2023-06-11T08:02:05Z</time>
      </trkpt>
      <trkpt lat="44.64587" lon="3.07082">
        <ele>1190.25</ele>
        <time>2023-06-11T08:02:18Z</time>
      </trkpt>
      <trkpt lat="44.64588" lon="3.07075">
        <ele>1189.29</ele>
        <time>2023-06-11T08:02:30Z</time>
      </trkpt>
      <trkpt lat="44.64587" lon="3.07064">
        <ele>1188.81</ele>
        <time>2023-06-11T08:02:47Z</time>
      </trkpt>
      <trkpt lat="44.64585" lon="3.07067">
        <ele>1188.33</ele>
        <time>2023-06-11T08:03:05Z</time>
      </trkpt>
      <trkpt lat="44.64587" lon="3.07077">
        <ele>1189.29</ele>
        <time>2023-06-11T08:03:23Z</time>
      </trkpt>
      <trkpt lat="44.6458" lon="3.0709">
        <ele>1188.81</ele>
        <time>2023-06-11T08:03:37Z</time>
      </trkpt>
      <trkpt lat="44.64571" lon="3.07088">
        <ele>1187.37</ele>
        <time>2023-06-11T08:03:52Z</time>
      </trkpt>
      <trkpt lat="44.64567" lon="3.07098">
        <ele>1186.4</ele>
        <time>2023-06-11T08:04:12Z</time>
      </trkpt>
      <trkpt lat="44.64565" lon="3.07101">
        <ele>1186.4</ele>
        <time>2023-06-11T08:04:27Z</time>
      </trkpt>
      <trkpt lat="44.64566" lon="3.07098">
        <ele>1185.92</ele>
        <time>2023-06-11T08:04:47Z</time>
      </trkpt>
      <trkpt lat="44.64566" lon="3.07092">
        <ele>1185.92</ele>
        <time>2023-06-11T08:05:15Z</time>
      </trkpt>
      <trkpt lat="44.64566" lon="3.07094">
        <ele>1185.92</ele>
        <time>2023-06-11T08:05:38Z</time>
      </trkpt>
      <trkpt lat="44.6457" lon="3.07097">
        <ele>1186.88</ele>
        <time>2023-06-11T08:06:04Z</time>
      </trkpt>
      <trkpt lat="44.64568" lon="3.07099">
        <ele>1187.37</ele>
        <time>2023-06-11T08:06:20Z</time>
      </trkpt>
      <trkpt lat="44.64565" lon="3.071">
        <ele>1186.4</ele>
        <time>2023-06-11T08:06:33Z</time>
      </trkpt>
      <trkpt lat="44.64567" lon="3.07102">
        <ele>1186.4</ele>
        <time>2023-06-11T08:07:08Z</time>
      </trkpt>
      <trkpt lat="44.64566" lon="3.07101">
        <ele>1185.92</ele>
        <time>2023-06-11T08:07:55Z</time>
      </trkpt>
      <trkpt lat="44.64564" lon="3.07099">
        <ele>1185.92</ele>
        <time>2023-06-11T08:08:36Z</time>
      </trkpt>
      <trkpt lat="44.64565" lon="3.07103">
        <ele>1185.92</ele>
        <time>2023-06-11T08:09:24Z</time>
      </trkpt>
      <trkpt lat="44.64565" lon="3.07103">
        <ele>1185.92</ele>
        <time>2023-06-11T08:10:07Z</time>
      </trkpt>
      <trkpt lat="44.64566" lon="3.07104">
        <ele>1186.4</ele>
        <time>2023-06-11T08:10:53Z</time>
      </trkpt>
      <trkpt lat="44.64564" lon="3.07101">
        <ele>1186.4</ele>
        <time>2023-06-11T08:11:43Z</time>
      </trkpt>
      <trkpt lat="44.64564" lon="3.07103">
        <ele>1186.88</ele>
        <time>2023-06-11T08:12:14Z</time>
      </trkpt>
      <trkpt lat="44.64563" lon="3.07102">
        <ele>1186.88</ele>
        <time>2023-06-11T08:12:24Z</time>
      </trkpt>
      <trkpt lat="44.64565" lon="3.07101">
        <ele>1187.37</ele>
        <time>2023-06-11T08:12:37Z</time>
      </trkpt>
      <trkpt lat="44.6457" lon="3.07097">
        <ele>1187.37</ele>
        <time>2023-06-11T08:12:49Z</time>
      </trkpt>
      <trkpt lat="44.64574" lon="3.07091">
        <ele>1188.81</ele>
        <time>2023-06-11T08:13:03Z</time>
      </trkpt>
      <trkpt lat="44.64576" lon="3.07093">
        <ele>1188.81</ele>
        <time>2023-06-11T08:13:24Z</time>
      </trkpt>
      <trkpt lat="44.64579" lon="3.07109">
        <ele>1190.25</ele>
        <time>2023-06-11T08:13:37Z</time>
      </trkpt>
      <trkpt lat="44.6458" lon="3.0712">
        <ele>1191.21</ele>
        <time>2023-06-11T08:13:47Z</time>
      </trkpt>
      <trkpt lat="44.64591" lon="3.07128">
        <ele>1193.61</ele>
        <time>2023-06-11T08:14:02Z</time>
      </trkpt>
      <trkpt lat="44.64592" lon="3.07132">
        <ele>1194.58</ele>
        <time>2023-06-11T08:14:05Z</time>
      </trkpt>
      <trkpt lat="44.64591" lon="3.07134">
        <ele>1194.58</ele>
        <time>2023-06-11T08:14:20Z</time>
      </trkpt>
      <trkpt lat="44.6459" lon="3.07126">
        <ele>1195.06</ele>
        <time>2023-06-11T08:14:36Z</time>
      </trkpt>
      <trkpt lat="44.64591" lon="3.07125">
        <ele>1195.06</ele>
        <time>2023-06-11T08:14:37Z</time>
      </trkpt>
      <trkpt lat="44.64592" lon="3.07116">
        <ele>1196.02</ele>
        <time>2023-06-11T08:14:50Z</time>
      </trkpt>
      <trkpt lat="44.64601" lon="3.07121">
        <ele>1198.42</ele>
        <time>2023-06-11T08:15:06Z</time>
      </trkpt>
      <trkpt lat="44.64606" lon="3.07127">
        <ele>1201.3</ele>
        <time>2023-06-11T08:15:18Z</time>
      </trkpt>
      <trkpt lat="44.64613" lon="3.07126">
        <ele>1201.3</ele>
        <time>2023-06-11T08:15:32Z</time>
      </trkpt>
      <trkpt lat="44.64621" lon="3.07129">
        <ele>1200.82</ele>
        <time>2023-06-11T08:15:48Z</time>
      </trkpt>
      <trkpt lat="44.6463" lon="3.07134">
        <ele>1199.38</ele>
        <time>2023-06-11T08:16:02Z</time>
      </trkpt>
      <trkpt lat="44.64636" lon="3.07126">
        <ele>1199.86</ele>
        <time>2023-06-11T08:16:15Z</time>
      </trkpt>
      <trkpt lat="44.64644" lon="3.07119">
        <ele>1200.82</ele>
        <time>2023-06-11T08:16:29Z</time>
      </trkpt>
      <trkpt lat="44.64653" lon="3.07108">
        <ele>1202.27</ele>
        <time>2023-06-11T08:16:49Z</time>
      </trkpt>
      <trkpt lat="44.64655" lon="3.07102">
        <ele>1203.71</ele>
        <time>2023-06-11T08:17:06Z</time>
      </trkpt>
      <trkpt lat="44.64653" lon="3.07094">
        <ele>1206.11</ele>
        <time>2023-06-11T08:17:22Z</time>
      </trkpt>
      <trkpt lat="44.64649" lon="3.0709">
        <ele>1208.51</ele>
        <time>2023-06-11T08:17:38Z</time>
      </trkpt>
      <trkpt lat="44.64645" lon="3.07077">
        <ele>1209.96</ele>
        <time>2023-06-11T08:17:53Z</time>
      </trkpt>
      <trkpt lat="44.64643" lon="3.07072">
        <ele>1211.4</ele>
        <time>2023-06-11T08:18:01Z</time>
      </trkpt>
      <trkpt lat="44.64638" lon="3.0707">
        <ele>1211.88</ele>
        <time>2023-06-11T08:18:16Z</time>
      </trkpt>
      <trkpt lat="44.64639" lon="3.0707">
        <ele>1211.88</ele>
        <time>2023-06-11T08:18:28Z</time>
      </trkpt>
      <trkpt lat="44.64643" lon="3.07071">
        <ele>1211.88</ele>
        <time>2023-06-11T08:18:44Z</time>
      </trkpt>
      <trkpt lat="44.64642" lon="3.0706">
        <ele>1212.36</ele>
        <time>2023-06-11T08:18:56Z</time>
      </trkpt>
      <trkpt lat="44.64639" lon="3.0705">
        <ele>1213.32</ele>
        <time>2023-06-11T08:19:10Z</time>
      </trkpt>
      <trkpt lat="44.64642" lon="3.07044">
        <ele>1213.32</ele>
        <time>2023-06-11T08:19:23Z</time>
      </trkpt>
      <trkpt lat="44.64643" lon="3.07038">
        <ele>1212.84</ele>
        <time>2023-06-11T08:19:42Z</time>
      </trkpt>
      <trkpt lat="44.64643" lon="3.07028">
        <ele>1214.28</ele>
        <time>2023-06-11T08:19:53Z</time>
      </trkpt>
      <trkpt lat="44.64641" lon="3.07025">
        <ele>1214.28</ele>
        <time>2023-06-11T08:19:56Z</time>
      </trkpt>
      <trkpt lat="44.64645" lon="3.07013">
        <ele>1214.28</ele>
        <time>2023-06-11T08:20:09Z</time>
      </trkpt>
      <trkpt lat="44.64651" lon="3.07015">
        <ele>1215.72</ele>
        <time>2023-06-11T08:20:18Z</time>
      </trkpt>
      <trkpt lat="44.64663" lon="3.07036">
        <ele>1215.72</ele>
        <time>2023-06-11T08:20:35Z</time>
      </trkpt>
      <trkpt lat="44.64678" lon="3.07052">
        <ele>1214.76</ele>
        <time>2023-06-11T08:20:52Z</time>
      </trkpt>
      <trkpt lat="44.64699" lon="3.07065">
        <ele>1214.76</ele>
        <time>2023-06-11T08:21:12Z</time>
      </trkpt>
      <trkpt lat="44.64717" lon="3.0707">
        <ele>1214.28</ele>
        <time>2023-06-11T08:21:29Z</time>
      </trkpt>
      <trkpt lat="44.64722" lon="3.07072">
        <ele>1213.8</ele>
        <time>2023-06-11T08:21:34Z</time>
      </trkpt>
      <trkpt lat="44.6474" lon="3.07078">
        <ele>1213.32</ele>
        <time>2023-06-11T08:21:50Z</time>
      </trkpt>
      <trkpt lat="44.64757" lon="3.07085">
        <ele>1212.36</ele>
        <time>2023-06-11T08:22:05Z</time>
      </trkpt>
      <trkpt lat="44.64771" lon="3.07093">
        <ele>1211.4</ele>
        <time>2023-06-11T08:22:17Z</time>
      </trkpt>
      <trkpt lat="44.64778" lon="3.07099">
        <ele>1210.44</ele>
        <time>2023-06-11T08:22:24Z</time>
      </trkpt>
      <trkpt lat="44.64795" lon="3.07106">
        <ele>1209.96</ele>
        <time>2023-06-11T08:22:39Z</time>
      </trkpt>
      <trkpt lat="44.64812" lon="3.07114">
        <ele>1207.55</ele>
        <time>2023-06-11T08:22:54Z</time>
      </trkpt>
      <trkpt lat="44.64818" lon="3.07117">
        <ele>1208.03</ele>
        <time>2023-06-11T08:22:59Z</time>
      </trkpt>
      <trkpt lat="44.64823" lon="3.07118">
        <ele>1206.59</ele>
        <time>2023-06-11T08:23:03Z</time>
      </trkpt>
      <trkpt lat="44.64845" lon="3.07128">
        <ele>1206.11</ele>
        <time>2023-06-11T08:23:22Z</time>
      </trkpt>
      <trkpt lat="44.64847" lon="3.07128">
        <ele>1205.63</ele>
        <time>2023-06-11T08:23:24Z</time>
      </trkpt>
      <trkpt lat="44.64862" lon="3.07129">
        <ele>1204.67</ele>
        <time>2023-06-11T08:23:39Z</time>
      </trkpt>
      <trkpt lat="44.64869" lon="3.07134">
        <ele>1203.71</ele>
        <time>2023-06-11T08:23:56Z</time>
      </trkpt>
      <trkpt lat="44.64878" lon="3.07138">
        <ele>1202.27</ele>
        <time>2023-06-11T08:24:11Z</time>
      </trkpt>
      <trkpt lat="44.64882" lon="3.07144">
        <ele>1200.82</ele>
        <time>2023-06-11T08:24:22Z</time>
      </trkpt>
      <trkpt lat="44.64887" lon="3.07145">
        <ele>1200.34</ele>
        <time>2023-06-11T08:24:28Z</time>
      </trkpt>
      <trkpt lat="44.64888" lon="3.07146">
        <ele>1199.38</ele>
        <time>2023-06-11T08:24:30Z</time>
      </trkpt>
      <trkpt lat="44.64887" lon="3.07164">
        <ele>1198.42</ele>
        <time>2023-06-11T08:24:43Z</time>
      </trkpt>
      <trkpt lat="44.64877" lon="3.07177">
        <ele>1196.5</ele>
        <time>2023-06-11T08:24:57Z</time>
      </trkpt>
      <trkpt lat="44.64874" lon="3.07184">
        <ele>1195.54</ele>
        <time>2023-06-11T08:25:03Z</time>
      </trkpt>
      <trkpt lat="44.64868" lon="3.07192">
        <ele>1194.58</ele>
        <time>2023-06-11T08:25:11Z</time>
      </trkpt>
      <trkpt lat="44.64857" lon="3.07206">
        <ele>1193.13</ele>
        <time>2023-06-11T08:25:27Z</time>
      </trkpt>
      <trkpt lat="44.64844" lon="3.07217">
        <ele>1192.17</ele>
        <time>2023-06-11T08:25:42Z</time>
      </trkpt>
      <trkpt lat="44.64833" lon="3.07227">
        <ele>1191.21</ele>
        <time>2023-06-11T08:25:56Z</time>
      </trkpt>
      <trkpt lat="44.64831" lon="3.07228">
        <ele>1190.73</ele>
        <time>2023-06-11T08:25:58Z</time>
      </trkpt>
      <trkpt lat="44.64825" lon="3.07232">
        <ele>1190.25</ele>
        <time>2023-06-11T08:26:06Z</time>
      </trkpt>
      <trkpt lat="44.64813" lon="3.0724">
        <ele>1188.81</ele>
        <time>2023-06-11T08:26:19Z</time>
      </trkpt>
      <trkpt lat="44.64801" lon="3.07246">
        <ele>1188.33</ele>
        <time>2023-06-11T08:26:32Z</time>
      </trkpt>
      <trkpt lat="44.648" lon="3.07246">
        <ele>1187.85</ele>
        <time>2023-06-11T08:26:33Z</time>
      </trkpt>
      <trkpt lat="44.64796" lon="3.07249">
        <ele>1187.85</ele>
        <time>2023-06-11T08:26:37Z</time>
      </trkpt>
      <trkpt lat="44.64794" lon="3.07254">
        <ele>1186.88</ele>
        <time>2023-06-11T08:26:41Z</time>
      </trkpt>
      <trkpt lat="44.64797" lon="3.07256">
        <ele>1186.88</ele>
        <time>2023-06-11T08:26:48Z</time>
      </trkpt>
      <trkpt lat="44.6482" lon="3.07246">
        <ele>1185.92</ele>
        <time>2023-06-11T08:27:07Z</time>
      </trkpt>
      <trkpt lat="44.64821" lon="3.07246">
        <ele>1185.92</ele>
        <time>2023-06-11T08:27:18Z</time>
      </trkpt>
      <trkpt lat="44.64833" lon="3.07244">
        <ele>1186.88</ele>
        <time>2023-06-11T08:27:31Z</time>
      </trkpt>
      <trkpt lat="44.64851" lon="3.07244">
        <ele>1185.44</ele>
        <time>2023-06-11T08:27:46Z</time>
      </trkpt>
      <trkpt lat="44.64869" lon="3.07242">
        <ele>1185.92</ele>
        <time>2023-06-11T08:28:01Z</time>
      </trkpt>
      <trkpt lat="44.64891" lon="3.07236">
        <ele>1184.96</ele>
        <time>2023-06-11T08:28:21Z</time>
      </trkpt>
      <trkpt lat="44.6491" lon="3.07232">
        <ele>1184.48</ele>
        <time>2023-06-11T08:28:38Z</time>
      </trkpt>
      <trkpt lat="44.64931" lon="3.0723">
        <ele>1184.48</ele>
        <time>2023-06-11T08:28:55Z</time>
      </trkpt>
      <trkpt lat="44.64935" lon="3.07231">
        <ele>1184</ele>
        <time>2023-06-11T08:28:59Z</time>
      </trkpt>
      <trkpt lat="44.64943" lon="3.07234">
        <ele>1183.52</ele>
        <time>2023-06-11T08:29:06Z</time>
      </trkpt>
      <trkpt lat="44.64965" lon="3.07244">
        <ele>1183.52</ele>
        <time>2023-06-11T08:29:25Z</time>
      </trkpt>
      <trkpt lat="44.64985" lon="3.07244">
        <ele>1183.04</ele>
        <time>2023-06-11T08:29:42Z</time>
      </trkpt>
      <trkpt lat="44.64997" lon="3.07243">
        <ele>1183.52</ele>
        <time>2023-06-11T08:29:58Z</time>
      </trkpt>
      <trkpt lat="44.64994" lon="3.07244">
        <ele>1183.52</ele>
        <time>2023-06-11T08:30:02Z</time>
      </trkpt>
      <trkpt lat="44.64983" lon="3.07244">
        <ele>1184</ele>
        <time>2023-06-11T08:30:12Z</time>
      </trkpt>
      <trkpt lat="44.64979" lon="3.07245">
        <ele>1183.52</ele>
        <time>2023-06-11T08:30:16Z</time>
      </trkpt>
      <trkpt lat="44.6496" lon="3.07244">
        <ele>1183.52</ele>
        <time>2023-06-11T08:30:34Z</time>
      </trkpt>
      <trkpt lat="44.64941" lon="3.07232">
        <ele>1184.48</ele>
        <time>2023-06-11T08:30:49Z</time>
      </trkpt>
      <trkpt lat="44.64927" lon="3.07228">
        <ele>1184.96</ele>
        <time>2023-06-11T08:31:01Z</time>
      </trkpt>
      <trkpt lat="44.64907" lon="3.07233">
        <ele>1185.44</ele>
        <time>2023-06-11T08:31:17Z</time>
      </trkpt>
      <trkpt lat="44.64884" lon="3.07237">
        <ele>1185.44</ele>
        <time>2023-06-11T08:31:36Z</time>
      </trkpt>
      <trkpt lat="44.64866" lon="3.07239">
        <ele>1186.4</ele>
        <time>2023-06-11T08:31:52Z</time>
      </trkpt>
      <trkpt lat="44.64847" lon="3.07241">
        <ele>1185.92</ele>
        <time>2023-06-11T08:32:07Z</time>
      </trkpt>
      <trkpt lat="44.64828" lon="3.07245">
        <ele>1186.88</ele>
        <time>2023-06-11T08:32:23Z</time>
      </trkpt>
      <trkpt lat="44.64808" lon="3.0725">
        <ele>1186.88</ele>
        <time>2023-06-11T08:32:38Z</time>
      </trkpt>
      <trkpt lat="44.64795" lon="3.07265">
        <ele>1186.4</ele>
        <time>2023-06-11T08:32:54Z</time>
      </trkpt>
      <trkpt lat="44.64799" lon="3.0729">
        <ele>1185.92</ele>
        <time>2023-06-11T08:33:10Z</time>
      </trkpt>
      <trkpt lat="44.64807" lon="3.07307">
        <ele>1184.96</ele>
        <time>2023-06-11T08:33:23Z</time>
      </trkpt>
      <trkpt lat="44.64809" lon="3.07311">
        <ele>1185.44</ele>
        <time>2023-06-11T08:33:26Z</time>
      </trkpt>
      <trkpt lat="44.64813" lon="3.07321">
        <ele>1184.48</ele>
        <time>2023-06-11T08:33:32Z</time>
      </trkpt>
      <trkpt lat="44.6482" lon="3.07337">
        <ele>1183.52</ele>
        <time>2023-06-11T08:33:42Z</time>
      </trkpt>
      <trkpt lat="44.64833" lon="3.07364">
        <ele>1182.08</ele>
        <time>2023-06-11T08:34:02Z</time>
      </trkpt>
      <trkpt lat="44.64843" lon="3.07387">
        <ele>1182.08</ele>
        <time>2023-06-11T08:34:18Z</time>
      </trkpt>
      <trkpt lat="44.64859" lon="3.07418">
        <ele>1179.67</ele>
        <time>2023-06-11T08:34:40Z</time>
      </trkpt>
      <trkpt lat="44.6487" lon="3.07439">
        <ele>1178.71</ele>
        <time>2023-06-11T08:34:56Z</time>
      </trkpt>
      <trkpt lat="44.64876" lon="3.07458">
        <ele>1177.27</ele>
        <time>2023-06-11T08:35:08Z</time>
      </trkpt>
      <trkpt lat="44.64884" lon="3.07474">
        <ele>1175.83</ele>
        <time>2023-06-11T08:35:19Z</time>
      </trkpt>
      <trkpt lat="44.64888" lon="3.07482">
        <ele>1175.83</ele>
        <time>2023-06-11T08:35:25Z</time>
      </trkpt>
      <trkpt lat="44.64898" lon="3.075">
        <ele>1173.43</ele>
        <time>2023-06-11T08:35:38Z</time>
      </trkpt>
      <trkpt lat="44.64908" lon="3.07525">
        <ele>1171.5</ele>
        <time>2023-06-11T08:35:56Z</time>
      </trkpt>
      <trkpt lat="44.64916" lon="3.07549">
        <ele>1170.06</ele>
        <time>2023-06-11T08:36:12Z</time>
      </trkpt>
      <trkpt lat="44.64922" lon="3.07569">
        <ele>1168.62</ele>
        <time>2023-06-11T08:36:25Z</time>
      </trkpt>
      <trkpt lat="44.64929" lon="3.07592">
        <ele>1169.1</ele>
        <time>2023-06-11T08:36:40Z</time>
      </trkpt>
      <trkpt lat="44.64938" lon="3.07623">
        <ele>1168.14</ele>
        <time>2023-06-11T08:37:00Z</time>
      </trkpt>
      <trkpt lat="44.64951" lon="3.07654">
        <ele>1169.1</ele>
        <time>2023-06-11T08:37:20Z</time>
      </trkpt>
      <trkpt lat="44.64961" lon="3.07681">
        <ele>1168.14</ele>
        <time>2023-06-11T08:37:37Z</time>
      </trkpt>
      <trkpt lat="44.64969" lon="3.07713">
        <ele>1168.14</ele>
        <time>2023-06-11T08:37:56Z</time>
      </trkpt>
      <trkpt lat="44.64975" lon="3.07743">
        <ele>1167.66</ele>
        <time>2023-06-11T08:38:15Z</time>
      </trkpt>
      <trkpt lat="44.64981" lon="3.07775">
        <ele>1167.66</ele>
        <time>2023-06-11T08:38:34Z</time>
      </trkpt>
      <trkpt lat="44.64988" lon="3.07805">
        <ele>1167.18</ele>
        <time>2023-06-11T08:38:53Z</time>
      </trkpt>
      <trkpt lat="44.64991" lon="3.07821">
        <ele>1166.22</ele>
        <time>2023-06-11T08:39:04Z</time>
      </trkpt>
      <trkpt lat="44.64995" lon="3.07854">
        <ele>1165.74</ele>
        <time>2023-06-11T08:39:22Z</time>
      </trkpt>
      <trkpt lat="44.64994" lon="3.07863">
        <ele>1165.74</ele>
        <time>2023-06-11T08:39:34Z</time>
      </trkpt>
      <trkpt lat="44.64998" lon="3.07891">
        <ele>1166.22</ele>
        <time>2023-06-11T08:39:51Z</time>
      </trkpt>
      <trkpt lat="44.65002" lon="3.07928">
        <ele>1166.7</ele>
        <time>2023-06-11T08:40:12Z</time>
      </trkpt>
      <trkpt lat="44.65007" lon="3.0796">
        <ele>1166.22</ele>
        <time>2023-06-11T08:40:31Z</time>
      </trkpt>
      <trkpt lat="44.65014" lon="3.07988">
        <ele>1166.7</ele>
        <time>2023-06-11T08:40:48Z</time>
      </trkpt>
      <trkpt lat="44.65024" lon="3.08013">
        <ele>1166.22</ele>
        <time>2023-06-11T08:41:05Z</time>
      </trkpt>
      <trkpt lat="44.65029" lon="3.08028">
        <ele>1165.26</ele>
        <time>2023-06-11T08:41:14Z</time>
      </trkpt>
      <trkpt lat="44.65032" lon="3.0806">
        <ele>1165.26</ele>
        <time>2023-06-11T08:41:34Z</time>
      </trkpt>
      <trkpt lat="44.65024" lon="3.08091">
        <ele>1165.26</ele>
        <time>2023-06-11T08:41:54Z</time>
      </trkpt>
      <trkpt lat="44.65016" lon="3.08101">
        <ele>1165.26</ele>
        <time>2023-06-11T08:42:09Z</time>
      </trkpt>
      <trkpt lat="44.65012" lon="3.08113">
        <ele>1164.29</ele>
        <time>2023-06-11T08:42:20Z</time>
      </trkpt>
      <trkpt lat="44.65003" lon="3.08142">
        <ele>1164.29</ele>
        <time>2023-06-11T08:42:39Z</time>
      </trkpt>
      <trkpt lat="44.6501" lon="3.08171">
        <ele>1163.81</ele>
        <time>2023-06-11T08:42:58Z</time>
      </trkpt>
      <trkpt lat="44.65025" lon="3.08194">
        <ele>1162.85</ele>
        <time>2023-06-11T08:43:17Z</time>
      </trkpt>
      <trkpt lat="44.65038" lon="3.08214">
        <ele>1162.37</ele>
        <time>2023-06-11T08:43:33Z</time>
      </trkpt>
      <trkpt lat="44.65047" lon="3.08233">
        <ele>1161.89</ele>
        <time>2023-06-11T08:43:47Z</time>
      </trkpt>
      <trkpt lat="44.65061" lon="3.08252">
        <ele>1161.89</ele>
        <time>2023-06-11T08:44:01Z</time>
      </trkpt>
      <trkpt lat="44.65072" lon="3.08274">
        <ele>1162.37</ele>
        <time>2023-06-11T08:44:17Z</time>
      </trkpt>
      <trkpt lat="44.65078" lon="3.08294">
        <ele>1161.89</ele>
        <time>2023-06-11T08:44:32Z</time>
      </trkpt>
      <trkpt lat="44.65082" lon="3.08326">
        <ele>1162.37</ele>
        <time>2023-06-11T08:44:47Z</time>
      </trkpt>
      <trkpt lat="44.65089" lon="3.08357">
        <ele>1162.85</ele>
        <time>2023-06-11T08:45:05Z</time>
      </trkpt>
      <trkpt lat="44.65093" lon="3.0838">
        <ele>1163.81</ele>
        <time>2023-06-11T08:45:21Z</time>
      </trkpt>
      <trkpt lat="44.65098" lon="3.08412">
        <ele>1163.81</ele>
        <time>2023-06-11T08:45:39Z</time>
      </trkpt>
      <trkpt lat="44.65104" lon="3.08445">
        <ele>1163.81</ele>
        <time>2023-06-11T08:45:59Z</time>
      </trkpt>
      <trkpt lat="44.65114" lon="3.08477">
        <ele>1163.33</ele>
        <time>2023-06-11T08:46:18Z</time>
      </trkpt>
      <trkpt lat="44.65131" lon="3.08498">
        <ele>1163.33</ele>
        <time>2023-06-11T08:46:36Z</time>
      </trkpt>
      <trkpt lat="44.65145" lon="3.08517">
        <ele>1163.33</ele>
        <time>2023-06-11T08:46:53Z</time>
      </trkpt>
      <trkpt lat="44.65161" lon="3.08535">
        <ele>1163.33</ele>
        <time>2023-06-11T08:47:10Z</time>
      </trkpt>
      <trkpt lat="44.65176" lon="3.08554">
        <ele>1163.33</ele>
        <time>2023-06-11T08:47:29Z</time>
      </trkpt>
      <trkpt lat="44.65195" lon="3.08574">
        <ele>1162.85</ele>
        <time>2023-06-11T08:47:48Z</time>
      </trkpt>
      <trkpt lat="44.65212" lon="3.08596">
        <ele>1163.33</ele>
        <time>2023-06-11T08:48:08Z</time>
      </trkpt>
      <trkpt lat="44.65231" lon="3.08614">
        <ele>1163.81</ele>
        <time>2023-06-11T08:48:25Z</time>
      </trkpt>
      <trkpt lat="44.6525" lon="3.08634">
        <ele>1162.85</ele>
        <time>2023-06-11T08:48:44Z</time>
      </trkpt>
      <trkpt lat="44.6527" lon="3.08656">
        <ele>1163.33</ele>
        <time>2023-06-11T08:49:05Z</time>
      </trkpt>
      <trkpt lat="44.6529" lon="3.08672">
        <ele>1163.33</ele>
        <time>2023-06-11T08:49:23Z</time>
      </trkpt>
      <trkpt lat="44.6531" lon="3.0868">
        <ele>1162.85</ele>
        <time>2023-06-11T08:49:41Z</time>
      </trkpt>
      <trkpt lat="44.65334" lon="3.08693">
        <ele>1163.33</ele>
        <time>2023-06-11T08:50:03Z</time>
      </trkpt>
      <trkpt lat="44.65354" lon="3.08703">
        <ele>1163.81</ele>
        <time>2023-06-11T08:50:20Z</time>
      </trkpt>
      <trkpt lat="44.65375" lon="3.0872">
        <ele>1163.33</ele>
        <time>2023-06-11T08:50:40Z</time>
      </trkpt>
      <trkpt lat="44.65391" lon="3.08736">
        <ele>1162.85</ele>
        <time>2023-06-11T08:50:56Z</time>
      </trkpt>
      <trkpt lat="44.65404" lon="3.08756">
        <ele>1162.37</ele>
        <time>2023-06-11T08:51:13Z</time>
      </trkpt>
      <trkpt lat="44.65407" lon="3.08766">
        <ele>1162.37</ele>
        <time>2023-06-11T08:51:20Z</time>
      </trkpt>
      <trkpt lat="44.65411" lon="3.08773">
        <ele>1161.89</ele>
        <time>2023-06-11T08:51:25Z</time>
      </trkpt>
      <trkpt lat="44.65426" lon="3.08795">
        <ele>1160.93</ele>
        <time>2023-06-11T08:51:43Z</time>
      </trkpt>
      <trkpt lat="44.65439" lon="3.08815">
        <ele>1159.97</ele>
        <time>2023-06-11T08:52:00Z</time>
      </trkpt>
      <trkpt lat="44.65456" lon="3.08835">
        <ele>1159.01</ele>
        <time>2023-06-11T08:52:20Z</time>
      </trkpt>
      <trkpt lat="44.65472" lon="3.08853">
        <ele>1159.01</ele>
        <time>2023-06-11T08:52:38Z</time>
      </trkpt>
      <trkpt lat="44.65486" lon="3.08862">
        <ele>1159.49</ele>
        <time>2023-06-11T08:52:54Z</time>
      </trkpt>
      <trkpt lat="44.65485" lon="3.08865">
        <ele>1159.49</ele>
        <time>2023-06-11T08:53:11Z</time>
      </trkpt>
      <trkpt lat="44.65486" lon="3.08865">
        <ele>1160.45</ele>
        <time>2023-06-11T08:53:26Z</time>
      </trkpt>
      <trkpt lat="44.65487" lon="3.08868">
        <ele>1159.01</ele>
        <time>2023-06-11T08:53:44Z</time>
      </trkpt>
      <trkpt lat="44.65487" lon="3.08861">
        <ele>1159.49</ele>
        <time>2023-06-11T08:54:00Z</time>
      </trkpt>
      <trkpt lat="44.65489" lon="3.08855">
        <ele>1159.49</ele>
        <time>2023-06-11T08:54:05Z</time>
      </trkpt>
      <trkpt lat="44.65487" lon="3.08849">
        <ele>1160.45</ele>
        <time>2023-06-11T08:54:09Z</time>
      </trkpt>
      <trkpt lat="44.65484" lon="3.08833">
        <ele>1161.89</ele>
        <time>2023-06-11T08:54:23Z</time>
      </trkpt>
      <trkpt lat="44.65495" lon="3.08815">
        <ele>1163.81</ele>
        <time>2023-06-11T08:54:41Z</time>
      </trkpt>
      <trkpt lat="44.65505" lon="3.08798">
        <ele>1166.22</ele>
        <time>2023-06-11T08:54:57Z</time>
      </trkpt>
      <trkpt lat="44.65517" lon="3.0879">
        <ele>1168.14</ele>
        <time>2023-06-11T08:55:14Z</time>
      </trkpt>
      <trkpt lat="44.65519" lon="3.08783">
        <ele>1168.14</ele>
        <time>2023-06-11T08:55:19Z</time>
      </trkpt>
      <trkpt lat="44.65519" lon="3.08768">
        <ele>1169.58</ele>
        <time>2023-06-11T08:55:30Z</time>
      </trkpt>
      <trkpt lat="44.6552" lon="3.08756">
        <ele>1170.06</ele>
        <time>2023-06-11T08:55:38Z</time>
      </trkpt>
      <trkpt lat="44.65527" lon="3.08742">
        <ele>1171.02</ele>
        <time>2023-06-11T08:55:50Z</time>
      </trkpt>
      <trkpt lat="44.65528" lon="3.08739">
        <ele>1171.5</ele>
        <time>2023-06-11T08:55:52Z</time>
      </trkpt>
      <trkpt lat="44.65534" lon="3.08728">
        <ele>1171.98</ele>
        <time>2023-06-11T08:56:01Z</time>
      </trkpt>
      <trkpt lat="44.65538" lon="3.08718">
        <ele>1172.95</ele>
        <time>2023-06-11T08:56:09Z</time>
      </trkpt>
      <trkpt lat="44.65544" lon="3.087">
        <ele>1173.91</ele>
        <time>2023-06-11T08:56:21Z</time>
      </trkpt>
      <trkpt lat="44.65551" lon="3.08676">
        <ele>1174.87</ele>
        <time>2023-06-11T08:56:37Z</time>
      </trkpt>
      <trkpt lat="44.65553" lon="3.08669">
        <ele>1175.35</ele>
        <time>2023-06-11T08:56:42Z</time>
      </trkpt>
      <trkpt lat="44.65562" lon="3.08645">
        <ele>1175.35</ele>
        <time>2023-06-11T08:56:59Z</time>
      </trkpt>
      <trkpt lat="44.65563" lon="3.0864">
        <ele>1175.83</ele>
        <time>2023-06-11T08:57:02Z</time>
      </trkpt>
      <trkpt lat="44.65569" lon="3.08618">
        <ele>1175.83</ele>
        <time>2023-06-11T08:57:17Z</time>
      </trkpt>
      <trkpt lat="44.65573" lon="3.08603">
        <ele>1175.83</ele>
        <time>2023-06-11T08:57:30Z</time>
      </trkpt>
      <trkpt lat="44.65581" lon="3.0858">
        <ele>1175.83</ele>
        <time>2023-06-11T08:57:47Z</time>
      </trkpt>
      <trkpt lat="44.65588" lon="3.08558">
        <ele>1175.83</ele>
        <time>2023-06-11T08:58:03Z</time>
      </trkpt>
      <trkpt lat="44.65592" lon="3.08548">
        <ele>1176.79</ele>
        <time>2023-06-11T08:58:17Z</time>
      </trkpt>
      <trkpt lat="44.65595" lon="3.08532">
        <ele>1177.27</ele>
        <time>2023-06-11T08:58:28Z</time>
      </trkpt>
      <trkpt lat="44.65601" lon="3.08501">
        <ele>1178.23</ele>
        <time>2023-06-11T08:58:48Z</time>
      </trkpt>
      <trkpt lat="44.65601" lon="3.08482">
        <ele>1178.23</ele>
        <time>2023-06-11T08:59:04Z</time>
      </trkpt>
      <trkpt lat="44.65603" lon="3.08479">
        <ele>1178.23</ele>
        <time>2023-06-11T08:59:17Z</time>
      </trkpt>
      <trkpt lat="44.65603" lon="3.08481">
        <ele>1178.23</ele>
        <time>2023-06-11T08:59:35Z</time>
      </trkpt>
      <trkpt lat="44.65606" lon="3.0848">
        <ele>1178.23</ele>
        <time>2023-06-11T09:00:00Z</time>
      </trkpt>
      <trkpt lat="44.65605" lon="3.0848">
        <ele>1178.71</ele>
        <time>2023-06-11T09:00:32Z</time>
      </trkpt>
      <trkpt lat="44.65603" lon="3.08481">
        <ele>1178.71</ele>
        <time>2023-06-11T09:00:54Z</time>
      </trkpt>
      <trkpt lat="44.656" lon="3.08479">
        <ele>1179.19</ele>
        <time>2023-06-11T09:01:26Z</time>
      </trkpt>
      <trkpt lat="44.65604" lon="3.08478">
        <ele>1178.23</ele>
        <time>2023-06-11T09:01:54Z</time>
      </trkpt>
      <trkpt lat="44.65605" lon="3.0848">
        <ele>1179.19</ele>
        <time>2023-06-11T09:02:19Z</time>
      </trkpt>
      <trkpt lat="44.65604" lon="3.08479">
        <ele>1178.71</ele>
        <time>2023-06-11T09:02:27Z</time>
      </trkpt>
      <trkpt lat="44.65604" lon="3.08481">
        <ele>1177.75</ele>
        <time>2023-06-11T09:02:43Z</time>
      </trkpt>
      <trkpt lat="44.65604" lon="3.08479">
        <ele>1178.71</ele>
        <time>2023-06-11T09:03:08Z</time>
      </trkpt>
      <trkpt lat="44.65606" lon="3.0848">
        <ele>1178.71</ele>
        <time>2023-06-11T09:03:28Z</time>
      </trkpt>
      <trkpt lat="44.65606" lon="3.08481">
        <ele>1177.75</ele>
        <time>2023-06-11T09:03:48Z</time>
      </trkpt>
      <trkpt lat="44.65603" lon="3.0848">
        <ele>1178.23</ele>
        <time>2023-06-11T09:04:00Z</time>
      </trkpt>
      <trkpt lat="44.65602" lon="3.08476">
        <ele>1178.23</ele>
        <time>2023-06-11T09:04:05Z</time>
      </trkpt>
      <trkpt lat="44.65602" lon="3.08468">
        <ele>1178.71</ele>
        <time>2023-06-11T09:04:11Z</time>
      </trkpt>
      <trkpt lat="44.65608" lon="3.08444">
        <ele>1178.71</ele>
        <time>2023-06-11T09:04:27Z</time>
      </trkpt>
      <trkpt lat="44.65613" lon="3.08415">
        <ele>1178.71</ele>
        <time>2023-06-11T09:04:45Z</time>
      </trkpt>
      <trkpt lat="44.65617" lon="3.08383">
        <ele>1178.71</ele>
        <time>2023-06-11T09:05:05Z</time>
      </trkpt>
      <trkpt lat="44.6562" lon="3.08354">
        <ele>1180.64</ele>
        <time>2023-06-11T09:05:23Z</time>
      </trkpt>
      <trkpt lat="44.65624" lon="3.08328">
        <ele>1180.64</ele>
        <time>2023-06-11T09:05:39Z</time>
      </trkpt>
      <trkpt lat="44.65628" lon="3.08302">
        <ele>1181.6</ele>
        <time>2023-06-11T09:05:55Z</time>
      </trkpt>
      <trkpt lat="44.65631" lon="3.0827">
        <ele>1181.12</ele>
        <time>2023-06-11T09:06:13Z</time>
      </trkpt>
      <trkpt lat="44.65636" lon="3.08239">
        <ele>1181.6</ele>
        <time>2023-06-11T09:06:32Z</time>
      </trkpt>
      <trkpt lat="44.65643" lon="3.08208">
        <ele>1181.6</ele>
        <time>2023-06-11T09:06:51Z</time>
      </trkpt>
      <trkpt lat="44.65648" lon="3.08179">
        <ele>1181.6</ele>
        <time>2023-06-11T09:07:09Z</time>
      </trkpt>
      <trkpt lat="44.65649" lon="3.0815">
        <ele>1183.52</ele>
        <time>2023-06-11T09:07:26Z</time>
      </trkpt>
      <trkpt lat="44.65653" lon="3.0812">
        <ele>1184.48</ele>
        <time>2023-06-11T09:07:45Z</time>
      </trkpt>
      <trkpt lat="44.65663" lon="3.0809">
        <ele>1185.92</ele>
        <time>2023-06-11T09:08:05Z</time>
      </trkpt>
      <trkpt lat="44.65669" lon="3.08065">
        <ele>1184</ele>
        <time>2023-06-11T09:08:21Z</time>
      </trkpt>
      <trkpt lat="44.65674" lon="3.08036">
        <ele>1184.48</ele>
        <time>2023-06-11T09:08:38Z</time>
      </trkpt>
      <trkpt lat="44.65677" lon="3.08022">
        <ele>1184</ele>
        <time>2023-06-11T09:08:47Z</time>
      </trkpt>
      <trkpt lat="44.65677" lon="3.07991">
        <ele>1184.48</ele>
        <time>2023-06-11T09:09:06Z</time>
      </trkpt>
      <trkpt lat="44.65674" lon="3.07958">
        <ele>1184.96</ele>
        <time>2023-06-11T09:09:25Z</time>
      </trkpt>
      <trkpt lat="44.65671" lon="3.07928">
        <ele>1184.96</ele>
        <time>2023-06-11T09:09:43Z</time>
      </trkpt>
      <trkpt lat="44.65662" lon="3.07904">
        <ele>1184.96</ele>
        <time>2023-06-11T09:09:59Z</time>
      </trkpt>
      <trkpt lat="44.65654" lon="3.07874">
        <ele>1186.4</ele>
        <time>2023-06-11T09:10:18Z</time>
      </trkpt>
      <trkpt lat="44.65653" lon="3.07845">
        <ele>1187.37</ele>
        <time>2023-06-11T09:10:36Z</time>
      </trkpt>
      <trkpt lat="44.65654" lon="3.07817">
        <ele>1187.85</ele>
        <time>2023-06-11T09:10:52Z</time>
      </trkpt>
      <trkpt lat="44.65655" lon="3.07788">
        <ele>1188.81</ele>
        <time>2023-06-11T09:11:09Z</time>
      </trkpt>
      <trkpt lat="44.65656" lon="3.07757">
        <ele>1188.81</ele>
        <time>2023-06-11T09:11:28Z</time>
      </trkpt>
      <trkpt lat="44.65656" lon="3.07721">
        <ele>1188.81</ele>
        <time>2023-06-11T09:11:48Z</time>
      </trkpt>
      <trkpt lat="44.65664" lon="3.07696">
        <ele>1188.81</ele>
        <time>2023-06-11T09:12:04Z</time>
      </trkpt>
      <trkpt lat="44.65673" lon="3.07667">
        <ele>1190.25</ele>
        <time>2023-06-11T09:12:23Z</time>
      </trkpt>
      <trkpt lat="44.65682" lon="3.07635">
        <ele>1190.25</ele>
        <time>2023-06-11T09:12:43Z</time>
      </trkpt>
      <trkpt lat="44.65689" lon="3.07608">
        <ele>1192.65</ele>
        <time>2023-06-11T09:13:01Z</time>
      </trkpt>
      <trkpt lat="44.65703" lon="3.0758">
        <ele>1194.09</ele>
        <time>2023-06-11T09:13:21Z</time>
      </trkpt>
      <trkpt lat="44.65711" lon="3.07561">
        <ele>1194.09</ele>
        <time>2023-06-11T09:13:34Z</time>
      </trkpt>
      <trkpt lat="44.65726" lon="3.07533">
        <ele>1196.98</ele>
        <time>2023-06-11T09:13:55Z</time>
      </trkpt>
      <trkpt lat="44.65731" lon="3.07523">
        <ele>1197.94</ele>
        <time>2023-06-11T09:14:03Z</time>
      </trkpt>
      <trkpt lat="44.65743" lon="3.07492">
        <ele>1199.86</ele>
        <time>2023-06-11T09:14:23Z</time>
      </trkpt>
      <trkpt lat="44.6575" lon="3.07461">
        <ele>1202.27</ele>
        <time>2023-06-11T09:14:41Z</time>
      </trkpt>
      <trkpt lat="44.65754" lon="3.07455">
        <ele>1201.79</ele>
        <time>2023-06-11T09:14:46Z</time>
      </trkpt>
      <trkpt lat="44.65759" lon="3.07441">
        <ele>1202.75</ele>
        <time>2023-06-11T09:15:00Z</time>
      </trkpt>
      <trkpt lat="44.65758" lon="3.07432">
        <ele>1204.19</ele>
        <time>2023-06-11T09:15:05Z</time>
      </trkpt>
      <trkpt lat="44.65759" lon="3.0742">
        <ele>1204.19</ele>
        <time>2023-06-11T09:15:13Z</time>
      </trkpt>
      <trkpt lat="44.65761" lon="3.07412">
        <ele>1204.67</ele>
        <time>2023-06-11T09:15:20Z</time>
      </trkpt>
      <trkpt lat="44.65761" lon="3.07409">
        <ele>1204.67</ele>
        <time>2023-06-11T09:15:22Z</time>
      </trkpt>
      <trkpt lat="44.65765" lon="3.07385">
        <ele>1206.11</ele>
        <time>2023-06-11T09:15:40Z</time>
      </trkpt>
      <trkpt lat="44.65765" lon="3.0738">
        <ele>1206.59</ele>
        <time>2023-06-11T09:15:43Z</time>
      </trkpt>
      <trkpt lat="44.65771" lon="3.07355">
        <ele>1207.55</ele>
        <time>2023-06-11T09:15:59Z</time>
      </trkpt>
      <trkpt lat="44.65779" lon="3.07333">
        <ele>1209.96</ele>
        <time>2023-06-11T09:16:16Z</time>
      </trkpt>
      <trkpt lat="44.65787" lon="3.07309">
        <ele>1211.4</ele>
        <time>2023-06-11T09:16:31Z</time>
      </trkpt>
      <trkpt lat="44.65789" lon="3.07286">
        <ele>1212.36</ele>
        <time>2023-06-11T09:16:46Z</time>
      </trkpt>
      <trkpt lat="44.65786" lon="3.07255">
        <ele>1212.36</ele>
        <time>2023-06-11T09:17:02Z</time>
      </trkpt>
      <trkpt lat="44.65786" lon="3.07254">
        <ele>1211.88</ele>
        <time>2023-06-11T09:17:03Z</time>
      </trkpt>
      <trkpt lat="44.65782" lon="3.07249">
        <ele>1212.36</ele>
        <time>2023-06-11T09:17:08Z</time>
      </trkpt>
      <trkpt lat="44.65778" lon="3.07241">
        <ele>1212.36</ele>
        <time>2023-06-11T09:17:13Z</time>
      </trkpt>
      <trkpt lat="44.65777" lon="3.07229">
        <ele>1211.88</ele>
        <time>2023-06-11T09:17:21Z</time>
      </trkpt>
      <trkpt lat="44.65772" lon="3.07212">
        <ele>1211.88</ele>
        <time>2023-06-11T09:17:38Z</time>
      </trkpt>
      <trkpt lat="44.65774" lon="3.07211">
        <ele>1212.84</ele>
        <time>2023-06-11T09:17:56Z</time>
      </trkpt>
      <trkpt lat="44.65774" lon="3.07211">
        <ele>1212.36</ele>
        <time>2023-06-11T09:18:05Z</time>
      </trkpt>
      <trkpt lat="44.65776" lon="3.07208">
        <ele>1212.84</ele>
        <time>2023-06-11T09:18:18Z</time>
      </trkpt>
      <trkpt lat="44.65769" lon="3.07203">
        <ele>1212.84</ele>
        <time>2023-06-11T09:18:27Z</time>
      </trkpt>
      <trkpt lat="44.65765" lon="3.07199">
        <ele>1213.32</ele>
        <time>2023-06-11T09:18:32Z</time>
      </trkpt>
      <trkpt lat="44.65756" lon="3.07178">
        <ele>1213.32</ele>
        <time>2023-06-11T09:18:49Z</time>
      </trkpt>
      <trkpt lat="44.6575" lon="3.07152">
        <ele>1214.28</ele>
        <time>2023-06-11T09:19:06Z</time>
      </trkpt>
      <trkpt lat="44.65742" lon="3.07126">
        <ele>1214.28</ele>
        <time>2023-06-11T09:19:23Z</time>
      </trkpt>
      <trkpt lat="44.65741" lon="3.07124">
        <ele>1214.28</ele>
        <time>2023-06-11T09:19:25Z</time>
      </trkpt>
      <trkpt lat="44.65734" lon="3.07097">
        <ele>1215.24</ele>
        <time>2023-06-11T09:19:42Z</time>
      </trkpt>
      <trkpt lat="44.6573" lon="3.07078">
        <ele>1215.24</ele>
        <time>2023-06-11T09:19:56Z</time>
      </trkpt>
      <trkpt lat="44.6573" lon="3.07075">
        <ele>1214.28</ele>
        <time>2023-06-11T09:19:58Z</time>
      </trkpt>
      <trkpt lat="44.65731" lon="3.07048">
        <ele>1213.32</ele>
        <time>2023-06-11T09:20:14Z</time>
      </trkpt>
      <trkpt lat="44.65735" lon="3.07023">
        <ele>1212.36</ele>
        <time>2023-06-11T09:20:30Z</time>
      </trkpt>
      <trkpt lat="44.65741" lon="3.07003">
        <ele>1210.44</ele>
        <time>2023-06-11T09:20:45Z</time>
      </trkpt>
      <trkpt lat="44.65746" lon="3.06988">
        <ele>1210.44</ele>
        <time>2023-06-11T09:20:58Z</time>
      </trkpt>
      <trkpt lat="44.65746" lon="3.06984">
        <ele>1210.92</ele>
        <time>2023-06-11T09:21:01Z</time>
      </trkpt>
      <trkpt lat="44.65746" lon="3.06979">
        <ele>1209.96</ele>
        <time>2023-06-11T09:21:05Z</time>
      </trkpt>
      <trkpt lat="44.65747" lon="3.0696">
        <ele>1209.48</ele>
        <time>2023-06-11T09:21:14Z</time>
      </trkpt>
      <trkpt lat="44.6575" lon="3.06953">
        <ele>1209.48</ele>
        <time>2023-06-11T09:21:19Z</time>
      </trkpt>
      <trkpt lat="44.65759" lon="3.06934">
        <ele>1209.96</ele>
        <time>2023-06-11T09:21:34Z</time>
      </trkpt>
      <trkpt lat="44.65761" lon="3.06928">
        <ele>1209.48</ele>
        <time>2023-06-11T09:21:38Z</time>
      </trkpt>
      <trkpt lat="44.65765" lon="3.06919">
        <ele>1209.96</ele>
        <time>2023-06-11T09:21:45Z</time>
      </trkpt>
      <trkpt lat="44.65769" lon="3.06891">
        <ele>1209.96</ele>
        <time>2023-06-11T09:22:01Z</time>
      </trkpt>
      <trkpt lat="44.65768" lon="3.06883">
        <ele>1209</ele>
        <time>2023-06-11T09:22:15Z</time>
      </trkpt>
      <trkpt lat="44.65771" lon="3.06855">
        <ele>1207.55</ele>
        <time>2023-06-11T09:22:32Z</time>
      </trkpt>
      <trkpt lat="44.65775" lon="3.06827">
        <ele>1207.07</ele>
        <time>2023-06-11T09:22:49Z</time>
      </trkpt>
      <trkpt lat="44.65782" lon="3.06803">
        <ele>1207.07</ele>
        <time>2023-06-11T09:23:06Z</time>
      </trkpt>
      <trkpt lat="44.65795" lon="3.0678">
        <ele>1204.19</ele>
        <time>2023-06-11T09:23:24Z</time>
      </trkpt>
      <trkpt lat="44.65809" lon="3.06763">
        <ele>1202.75</ele>
        <time>2023-06-11T09:23:41Z</time>
      </trkpt>
      <trkpt lat="44.6582" lon="3.06751">
        <ele>1199.38</ele>
        <time>2023-06-11T09:23:54Z</time>
      </trkpt>
      <trkpt lat="44.65836" lon="3.06733">
        <ele>1198.42</ele>
        <time>2023-06-11T09:24:11Z</time>
      </trkpt>
      <trkpt lat="44.65855" lon="3.06718">
        <ele>1194.58</ele>
        <time>2023-06-11T09:24:29Z</time>
      </trkpt>
      <trkpt lat="44.65876" lon="3.06705">
        <ele>1192.65</ele>
        <time>2023-06-11T09:24:49Z</time>
      </trkpt>
      <trkpt lat="44.65897" lon="3.06687">
        <ele>1191.69</ele>
        <time>2023-06-11T09:25:11Z</time>
      </trkpt>
      <trkpt lat="44.65897" lon="3.06659">
        <ele>1191.21</ele>
        <time>2023-06-11T09:25:28Z</time>
      </trkpt>
      <trkpt lat="44.65895" lon="3.06634">
        <ele>1191.21</ele>
        <time>2023-06-11T09:25:44Z</time>
      </trkpt>
      <trkpt lat="44.65895" lon="3.06625">
        <ele>1191.69</ele>
        <time>2023-06-11T09:25:50Z</time>
      </trkpt>
      <trkpt lat="44.65897" lon="3.06619">
        <ele>1191.69</ele>
        <time>2023-06-11T09:25:54Z</time>
      </trkpt>
      <trkpt lat="44.65897" lon="3.06615">
        <ele>1191.69</ele>
        <time>2023-06-11T09:25:56Z</time>
      </trkpt>
      <trkpt lat="44.65899" lon="3.06606">
        <ele>1191.21</ele>
        <time>2023-06-11T09:26:02Z</time>
      </trkpt>
      <trkpt lat="44.65903" lon="3.06583">
        <ele>1192.17</ele>
        <time>2023-06-11T09:26:16Z</time>
      </trkpt>
      <trkpt lat="44.65904" lon="3.06572">
        <ele>1192.65</ele>
        <time>2023-06-11T09:26:22Z</time>
      </trkpt>
      <trkpt lat="44.65905" lon="3.0656">
        <ele>1193.13</ele>
        <time>2023-06-11T09:26:30Z</time>
      </trkpt>
      <trkpt lat="44.65906" lon="3.06553">
        <ele>1193.61</ele>
        <time>2023-06-11T09:26:34Z</time>
      </trkpt>
      <trkpt lat="44.65906" lon="3.06542">
        <ele>1193.61</ele>
        <time>2023-06-11T09:26:41Z</time>
      </trkpt>
      <trkpt lat="44.65906" lon="3.06531">
        <ele>1194.58</ele>
        <time>2023-06-11T09:26:48Z</time>
      </trkpt>
      <trkpt lat="44.65905" lon="3.06521">
        <ele>1194.58</ele>
        <time>2023-06-11T09:26:53Z</time>
      </trkpt>
      <trkpt lat="44.65903" lon="3.0649">
        <ele>1194.58</ele>
        <time>2023-06-11T09:27:12Z</time>
      </trkpt>
      <trkpt lat="44.659" lon="3.06464">
        <ele>1196.5</ele>
        <time>2023-06-11T09:27:27Z</time>
      </trkpt>
      <trkpt lat="44.65898" lon="3.06431">
        <ele>1196.98</ele>
        <time>2023-06-11T09:27:47Z</time>
      </trkpt>
      <trkpt lat="44.65897" lon="3.06405">
        <ele>1196.5</ele>
        <time>2023-06-11T09:28:03Z</time>
      </trkpt>
      <trkpt lat="44.65896" lon="3.06381">
        <ele>1198.42</ele>
        <time>2023-06-11T09:28:18Z</time>
      </trkpt>
      <trkpt lat="44.65893" lon="3.06353">
        <ele>1198.9</ele>
        <time>2023-06-11T09:28:35Z</time>
      </trkpt>
      <trkpt lat="44.65891" lon="3.06324">
        <ele>1200.82</ele>
        <time>2023-06-11T09:28:53Z</time>
      </trkpt>
      <trkpt lat="44.6589" lon="3.06318">
        <ele>1200.82</ele>
        <time>2023-06-11T09:28:57Z</time>
      </trkpt>
      <trkpt lat="44.65886" lon="3.06294">
        <ele>1203.23</ele>
        <time>2023-06-11T09:29:14Z</time>
      </trkpt>
      <trkpt lat="44.65878" lon="3.0627">
        <ele>1203.71</ele>
        <time>2023-06-11T09:29:30Z</time>
      </trkpt>
      <trkpt lat="44.6587" lon="3.06249">
        <ele>1204.67</ele>
        <time>2023-06-11T09:29:45Z</time>
      </trkpt>
      <trkpt lat="44.65861" lon="3.06226">
        <ele>1205.15</ele>
        <time>2023-06-11T09:30:01Z</time>
      </trkpt>
      <trkpt lat="44.65855" lon="3.06197">
        <ele>1207.07</ele>
        <time>2023-06-11T09:30:19Z</time>
      </trkpt>
      <trkpt lat="44.65848" lon="3.0617">
        <ele>1208.51</ele>
        <time>2023-06-11T09:30:36Z</time>
      </trkpt>
      <trkpt lat="44.6584" lon="3.06146">
        <ele>1209.48</ele>
        <time>2023-06-11T09:30:52Z</time>
      </trkpt>
      <trkpt lat="44.65831" lon="3.06118">
        <ele>1210.44</ele>
        <time>2023-06-11T09:31:10Z</time>
      </trkpt>
      <trkpt lat="44.65821" lon="3.06089">
        <ele>1212.84</ele>
        <time>2023-06-11T09:31:30Z</time>
      </trkpt>
      <trkpt lat="44.65809" lon="3.06069">
        <ele>1213.32</ele>
        <time>2023-06-11T09:31:46Z</time>
      </trkpt>
      <trkpt lat="44.65799" lon="3.06047">
        <ele>1214.76</ele>
        <time>2023-06-11T09:32:03Z</time>
      </trkpt>
      <trkpt lat="44.65789" lon="3.06024">
        <ele>1215.24</ele>
        <time>2023-06-11T09:32:19Z</time>
      </trkpt>
      <trkpt lat="44.65779" lon="3.05999">
        <ele>1216.21</ele>
        <time>2023-06-11T09:32:38Z</time>
      </trkpt>
      <trkpt lat="44.65771" lon="3.05976">
        <ele>1218.13</ele>
        <time>2023-06-11T09:32:54Z</time>
      </trkpt>
      <trkpt lat="44.65764" lon="3.05957">
        <ele>1218.61</ele>
        <time>2023-06-11T09:33:10Z</time>
      </trkpt>
      <trkpt lat="44.65763" lon="3.05952">
        <ele>1219.57</ele>
        <time>2023-06-11T09:33:14Z</time>
      </trkpt>
      <trkpt lat="44.65761" lon="3.05947">
        <ele>1219.57</ele>
        <time>2023-06-11T09:33:18Z</time>
      </trkpt>
      <trkpt lat="44.65756" lon="3.05926">
        <ele>1221.01</ele>
        <time>2023-06-11T09:33:34Z</time>
      </trkpt>
      <trkpt lat="44.65752" lon="3.05911">
        <ele>1221.97</ele>
        <time>2023-06-11T09:33:48Z</time>
      </trkpt>
      <trkpt lat="44.65743" lon="3.05885">
        <ele>1221.49</ele>
        <time>2023-06-11T09:34:09Z</time>
      </trkpt>
      <trkpt lat="44.65741" lon="3.05873">
        <ele>1222.45</ele>
        <time>2023-06-11T09:34:21Z</time>
      </trkpt>
      <trkpt lat="44.65741" lon="3.05868">
        <ele>1221.97</ele>
        <time>2023-06-11T09:34:44Z</time>
      </trkpt>
      <trkpt lat="44.65741" lon="3.05852">
        <ele>1222.45</ele>
        <time>2023-06-11T09:34:58Z</time>
      </trkpt>
      <trkpt lat="44.65742" lon="3.05835">
        <ele>1223.9</ele>
        <time>2023-06-11T09:35:12Z</time>
      </trkpt>
      <trkpt lat="44.65742" lon="3.05818">
        <ele>1222.93</ele>
        <time>2023-06-11T09:35:28Z</time>
      </trkpt>
      <trkpt lat="44.65742" lon="3.05815">
        <ele>1223.42</ele>
        <time>2023-06-11T09:35:32Z</time>
      </trkpt>
      <trkpt lat="44.65742" lon="3.05803">
        <ele>1222.93</ele>
        <time>2023-06-11T09:35:43Z</time>
      </trkpt>
      <trkpt lat="44.65747" lon="3.05787">
        <ele>1222.45</ele>
        <time>2023-06-11T09:35:58Z</time>
      </trkpt>
      <trkpt lat="44.6575" lon="3.05783">
        <ele>1222.45</ele>
        <time>2023-06-11T09:36:12Z</time>
      </trkpt>
      <trkpt lat="44.65752" lon="3.05784">
        <ele>1223.42</ele>
        <time>2023-06-11T09:36:27Z</time>
      </trkpt>
      <trkpt lat="44.65754" lon="3.05774">
        <ele>1222.45</ele>
        <time>2023-06-11T09:36:44Z</time>
      </trkpt>
      <trkpt lat="44.65761" lon="3.05763">
        <ele>1221.97</ele>
        <time>2023-06-11T09:36:57Z</time>
      </trkpt>
      <trkpt lat="44.65765" lon="3.05759">
        <ele>1221.97</ele>
        <time>2023-06-11T09:37:12Z</time>
      </trkpt>
      <trkpt lat="44.65774" lon="3.05749">
        <ele>1220.05</ele>
        <time>2023-06-11T09:37:28Z</time>
      </trkpt>
      <trkpt lat="44.65777" lon="3.05745">
        <ele>1219.09</ele>
        <time>2023-06-11T09:37:34Z</time>
      </trkpt>
      <trkpt lat="44.65787" lon="3.05731">
        <ele>1218.61</ele>
        <time>2023-06-11T09:37:48Z</time>
      </trkpt>
      <trkpt lat="44.65795" lon="3.05717">
        <ele>1216.21</ele>
        <time>2023-06-11T09:38:01Z</time>
      </trkpt>
      <trkpt lat="44.65796" lon="3.05715">
        <ele>1217.65</ele>
        <time>2023-06-11T09:38:03Z</time>
      </trkpt>
      <trkpt lat="44.658" lon="3.0571">
        <ele>1217.65</ele>
        <time>2023-06-11T09:38:09Z</time>
      </trkpt>
      <trkpt lat="44.65809" lon="3.05699">
        <ele>1214.76</ele>
        <time>2023-06-11T09:38:22Z</time>
      </trkpt>
      <trkpt lat="44.65819" lon="3.05684">
        <ele>1212.84</ele>
        <time>2023-06-11T09:38:37Z</time>
      </trkpt>
      <trkpt lat="44.6583" lon="3.05669">
        <ele>1211.4</ele>
        <time>2023-06-11T09:38:52Z</time>
      </trkpt>
      <trkpt lat="44.65834" lon="3.05667">
        <ele>1211.4</ele>
        <time>2023-06-11T09:39:06Z</time>
      </trkpt>
      <trkpt lat="44.65839" lon="3.0566">
        <ele>1210.92</ele>
        <time>2023-06-11T09:39:20Z</time>
      </trkpt>
      <trkpt lat="44.65838" lon="3.05658">
        <ele>1210.92</ele>
        <time>2023-06-11T09:39:34Z</time>
      </trkpt>
      <trkpt lat="44.6584" lon="3.05657">
        <ele>1210.92</ele>
        <time>2023-06-11T09:39:48Z</time>
      </trkpt>
      <trkpt lat="44.65842" lon="3.05658">
        <ele>1210.92</ele>
        <time>2023-06-11T09:40:03Z</time>
      </trkpt>
      <trkpt lat="44.65846" lon="3.0565">
        <ele>1210.44</ele>
        <time>2023-06-11T09:40:19Z</time>
      </trkpt>
      <trkpt lat="44.65848" lon="3.05649">
        <ele>1209.96</ele>
        <time>2023-06-11T09:40:31Z</time>
      </trkpt>
      <trkpt lat="44.6585" lon="3.05635">
        <ele>1208.51</ele>
        <time>2023-06-11T09:40:44Z</time>
      </trkpt>
      <trkpt lat="44.65851" lon="3.0563">
        <ele>1209</ele>
        <time>2023-06-11T09:40:48Z</time>
      </trkpt>
      <trkpt lat="44.65851" lon="3.05621">
        <ele>1208.03</ele>
        <time>2023-06-11T09:41:03Z</time>
      </trkpt>
      <trkpt lat="44.65851" lon="3.05608">
        <ele>1208.03</ele>
        <time>2023-06-11T09:41:17Z</time>
      </trkpt>
      <trkpt lat="44.65852" lon="3.05591">
        <ele>1208.03</ele>
        <time>2023-06-11T09:41:32Z</time>
      </trkpt>
      <trkpt lat="44.65854" lon="3.05565">
        <ele>1207.07</ele>
        <time>2023-06-11T09:41:49Z</time>
      </trkpt>
      <trkpt lat="44.65857" lon="3.05545">
        <ele>1207.55</ele>
        <time>2023-06-11T09:42:05Z</time>
      </trkpt>
      <trkpt lat="44.6586" lon="3.05528">
        <ele>1207.07</ele>
        <time>2023-06-11T09:42:19Z</time>
      </trkpt>
      <trkpt lat="44.65866" lon="3.05509">
        <ele>1206.11</ele>
        <time>2023-06-11T09:42:34Z</time>
      </trkpt>
      <trkpt lat="44.65872" lon="3.05497">
        <ele>1205.15</ele>
        <time>2023-06-11T09:42:46Z</time>
      </trkpt>
      <trkpt lat="44.65882" lon="3.05477">
        <ele>1203.71</ele>
        <time>2023-06-11T09:43:03Z</time>
      </trkpt>
      <trkpt lat="44.65884" lon="3.0547">
        <ele>1204.19</ele>
        <time>2023-06-11T09:43:08Z</time>
      </trkpt>
      <trkpt lat="44.65892" lon="3.0545">
        <ele>1203.23</ele>
        <time>2023-06-11T09:43:24Z</time>
      </trkpt>
      <trkpt lat="44.659" lon="3.05427">
        <ele>1201.79</ele>
        <time>2023-06-11T09:43:40Z</time>
      </trkpt>
      <trkpt lat="44.65901" lon="3.05424">
        <ele>1200.82</ele>
        <time>2023-06-11T09:43:42Z</time>
      </trkpt>
      <trkpt lat="44.65903" lon="3.05416">
        <ele>1200.34</ele>
        <time>2023-06-11T09:43:47Z</time>
      </trkpt>
      <trkpt lat="44.65907" lon="3.05403">
        <ele>1198.9</ele>
        <time>2023-06-11T09:43:56Z</time>
      </trkpt>
      <trkpt lat="44.65921" lon="3.05383">
        <ele>1197.94</ele>
        <time>2023-06-11T09:44:13Z</time>
      </trkpt>
      <trkpt lat="44.65928" lon="3.05366">
        <ele>1195.54</ele>
        <time>2023-06-11T09:44:27Z</time>
      </trkpt>
      <trkpt lat="44.65934" lon="3.05347">
        <ele>1195.06</ele>
        <time>2023-06-11T09:44:41Z</time>
      </trkpt>
      <trkpt lat="44.6594" lon="3.05322">
        <ele>1194.58</ele>
        <time>2023-06-11T09:44:56Z</time>
      </trkpt>
      <trkpt lat="44.6594" lon="3.05319">
        <ele>1194.09</ele>
        <time>2023-06-11T09:44:58Z</time>
      </trkpt>
      <trkpt lat="44.65941" lon="3.05297">
        <ele>1194.09</ele>
        <time>2023-06-11T09:45:13Z</time>
      </trkpt>
      <trkpt lat="44.65941" lon="3.05282">
        <ele>1194.09</ele>
        <time>2023-06-11T09:45:22Z</time>
      </trkpt>
      <trkpt lat="44.65943" lon="3.05277">
        <ele>1194.09</ele>
        <time>2023-06-11T09:45:30Z</time>
      </trkpt>
      <trkpt lat="44.65948" lon="3.05268">
        <ele>1194.09</ele>
        <time>2023-06-11T09:45:46Z</time>
      </trkpt>
      <trkpt lat="44.65936" lon="3.05255">
        <ele>1193.61</ele>
        <time>2023-06-11T09:46:02Z</time>
      </trkpt>
      <trkpt lat="44.65935" lon="3.05255">
        <ele>1193.61</ele>
        <time>2023-06-11T09:46:03Z</time>
      </trkpt>
      <trkpt lat="44.65929" lon="3.05246">
        <ele>1192.65</ele>
        <time>2023-06-11T09:46:13Z</time>
      </trkpt>
      <trkpt lat="44.65922" lon="3.05225">
        <ele>1191.21</ele>
        <time>2023-06-11T09:46:29Z</time>
      </trkpt>
      <trkpt lat="44.65922" lon="3.05207">
        <ele>1190.25</ele>
        <time>2023-06-11T09:46:43Z</time>
      </trkpt>
      <trkpt lat="44.65922" lon="3.05197">
        <ele>1191.21</ele>
        <time>2023-06-11T09:46:50Z</time>
      </trkpt>
      <trkpt lat="44.65922" lon="3.05194">
        <ele>1190.73</ele>
        <time>2023-06-11T09:46:52Z</time>
      </trkpt>
      <trkpt lat="44.65923" lon="3.05188">
        <ele>1190.25</ele>
        <time>2023-06-11T09:46:58Z</time>
      </trkpt>
      <trkpt lat="44.65923" lon="3.05163">
        <ele>1189.77</ele>
        <time>2023-06-11T09:47:15Z</time>
      </trkpt>
      <trkpt lat="44.65932" lon="3.05143">
        <ele>1188.81</ele>
        <time>2023-06-11T09:47:31Z</time>
      </trkpt>
      <trkpt lat="44.6594" lon="3.05135">
        <ele>1188.81</ele>
        <time>2023-06-11T09:47:39Z</time>
      </trkpt>
      <trkpt lat="44.65958" lon="3.05128">
        <ele>1187.37</ele>
        <time>2023-06-11T09:47:57Z</time>
      </trkpt>
      <trkpt lat="44.65961" lon="3.05126">
        <ele>1187.85</ele>
        <time>2023-06-11T09:48:00Z</time>
      </trkpt>
      <trkpt lat="44.65988" lon="3.05121">
        <ele>1187.37</ele>
        <time>2023-06-11T09:48:21Z</time>
      </trkpt>
      <trkpt lat="44.65991" lon="3.05121">
        <ele>1187.85</ele>
        <time>2023-06-11T09:48:23Z</time>
      </trkpt>
      <trkpt lat="44.66006" lon="3.0511">
        <ele>1188.33</ele>
        <time>2023-06-11T09:48:39Z</time>
      </trkpt>
      <trkpt lat="44.66013" lon="3.05104">
        <ele>1188.33</ele>
        <time>2023-06-11T09:48:47Z</time>
      </trkpt>
      <trkpt lat="44.66026" lon="3.05092">
        <ele>1187.85</ele>
        <time>2023-06-11T09:49:00Z</time>
      </trkpt>
      <trkpt lat="44.66034" lon="3.05069">
        <ele>1187.85</ele>
        <time>2023-06-11T09:49:16Z</time>
      </trkpt>
      <trkpt lat="44.66041" lon="3.0505">
        <ele>1187.85</ele>
        <time>2023-06-11T09:49:30Z</time>
      </trkpt>
      <trkpt lat="44.66043" lon="3.05032">
        <ele>1187.85</ele>
        <time>2023-06-11T09:49:45Z</time>
      </trkpt>
      <trkpt lat="44.66043" lon="3.05037">
        <ele>1187.37</ele>
        <time>2023-06-11T09:50:05Z</time>
      </trkpt>
      <trkpt lat="44.66045" lon="3.05035">
        <ele>1186.88</ele>
        <time>2023-06-11T09:50:19Z</time>
      </trkpt>
      <trkpt lat="44.66045" lon="3.05035">
        <ele>1188.33</ele>
        <time>2023-06-11T09:50:39Z</time>
      </trkpt>
      <trkpt lat="44.66042" lon="3.05032">
        <ele>1188.81</ele>
        <time>2023-06-11T09:51:10Z</time>
        <extensions>
          <visugpx:TrkExtension xmlns:visugpx="https://www.visugpx.com/editgpx/">
            <visugpx:node>1</visugpx:node>
            </visugpx:TrkExtension>
        </extensions>
      </trkpt>
    </trkseg>
  </trk>
</gpx>